<?xml version="1.0" encoding="UTF-8" standalone="no" ?>
<gpx xmlns="http://www.topografix.com/GPX/1/1" xmlns:xsi="http://www.w3.org/2001/XMLSchema-instance" xsi:schemaLocation="http://www.topografix.com/GPX/1/1 http://www.topografix.com/GPX/1/1/gpx.xsd" version="1.1" creator="VisuGPX - https://www.visugpx.com">
  <metadata>
    <name>Gc Bourbon A 82</name>
    <desc><![CDATA[Gc Bourbon A 82 km avec jj
hub03gc]]></desc>
  </metadata>
  <trk>
    <name><![CDATA[Toaster Course]]></name>
    <trkseg>
      <trkpt lat="46.06563" lon="3.55675">
        <ele>426</ele>
        <time>2011-10-04T00:00:00Z</time>
      </trkpt>
      <trkpt lat="46.06737" lon="3.56251">
        <ele>363</ele>
        <time>2011-10-04T00:00:58Z</time>
      </trkpt>
      <trkpt lat="46.06747" lon="3.56244">
        <ele>363</ele>
        <time>2011-10-04T00:00:59Z</time>
      </trkpt>
      <trkpt lat="46.06808" lon="3.5623">
        <ele>363</ele>
        <time>2011-10-04T00:01:07Z</time>
      </trkpt>
      <trkpt lat="46.06829" lon="3.56221">
        <ele>363</ele>
        <time>2011-10-04T00:01:10Z</time>
      </trkpt>
      <trkpt lat="46.06853" lon="3.56203">
        <ele>362</ele>
        <time>2011-10-04T00:01:14Z</time>
      </trkpt>
      <trkpt lat="46.07261" lon="3.55776">
        <ele>351</ele>
        <time>2011-10-04T00:02:21Z</time>
      </trkpt>
      <trkpt lat="46.07288" lon="3.55736">
        <ele>352</ele>
        <time>2011-10-04T00:02:30Z</time>
      </trkpt>
      <trkpt lat="46.07303" lon="3.5571">
        <ele>353</ele>
        <time>2011-10-04T00:02:36Z</time>
      </trkpt>
      <trkpt lat="46.07322" lon="3.55667">
        <ele>355</ele>
        <time>2011-10-04T00:02:44Z</time>
      </trkpt>
      <trkpt lat="46.0734" lon="3.55612">
        <ele>357</ele>
        <time>2011-10-04T00:02:56Z</time>
      </trkpt>
      <trkpt lat="46.0738" lon="3.55443">
        <ele>365</ele>
        <time>2011-10-04T00:03:30Z</time>
      </trkpt>
      <trkpt lat="46.07382" lon="3.55387">
        <ele>363</ele>
        <time>2011-10-04T00:03:35Z</time>
      </trkpt>
      <trkpt lat="46.07378" lon="3.55307">
        <ele>362</ele>
        <time>2011-10-04T00:03:43Z</time>
      </trkpt>
      <trkpt lat="46.07376" lon="3.55209">
        <ele>363</ele>
        <time>2011-10-04T00:03:55Z</time>
      </trkpt>
      <trkpt lat="46.0738" lon="3.5516">
        <ele>364</ele>
        <time>2011-10-04T00:04:01Z</time>
      </trkpt>
      <trkpt lat="46.07381" lon="3.55129">
        <ele>363</ele>
        <time>2011-10-04T00:04:04Z</time>
      </trkpt>
      <trkpt lat="46.07372" lon="3.55065">
        <ele>362</ele>
        <time>2011-10-04T00:04:10Z</time>
      </trkpt>
      <trkpt lat="46.07369" lon="3.55024">
        <ele>362</ele>
        <time>2011-10-04T00:04:14Z</time>
      </trkpt>
      <trkpt lat="46.07375" lon="3.54979">
        <ele>361</ele>
        <time>2011-10-04T00:04:18Z</time>
      </trkpt>
      <trkpt lat="46.07477" lon="3.54524">
        <ele>351</ele>
        <time>2011-10-04T00:05:03Z</time>
      </trkpt>
      <trkpt lat="46.07496" lon="3.54469">
        <ele>349</ele>
        <time>2011-10-04T00:05:08Z</time>
      </trkpt>
      <trkpt lat="46.0756" lon="3.54311">
        <ele>347</ele>
        <time>2011-10-04T00:05:25Z</time>
      </trkpt>
      <trkpt lat="46.07574" lon="3.54281">
        <ele>347</ele>
        <time>2011-10-04T00:05:29Z</time>
      </trkpt>
      <trkpt lat="46.07587" lon="3.54263">
        <ele>347</ele>
        <time>2011-10-04T00:05:32Z</time>
      </trkpt>
      <trkpt lat="46.07679" lon="3.54189">
        <ele>348</ele>
        <time>2011-10-04T00:05:47Z</time>
      </trkpt>
      <trkpt lat="46.07703" lon="3.54172">
        <ele>348</ele>
        <time>2011-10-04T00:05:51Z</time>
      </trkpt>
      <trkpt lat="46.07827" lon="3.54156">
        <ele>349</ele>
        <time>2011-10-04T00:06:10Z</time>
      </trkpt>
      <trkpt lat="46.07906" lon="3.54141">
        <ele>351</ele>
        <time>2011-10-04T00:06:27Z</time>
      </trkpt>
      <trkpt lat="46.07921" lon="3.54133">
        <ele>352</ele>
        <time>2011-10-04T00:06:30Z</time>
      </trkpt>
      <trkpt lat="46.07972" lon="3.54101">
        <ele>350</ele>
        <time>2011-10-04T00:06:37Z</time>
      </trkpt>
      <trkpt lat="46.0801" lon="3.5409">
        <ele>350</ele>
        <time>2011-10-04T00:06:43Z</time>
      </trkpt>
      <trkpt lat="46.08285" lon="3.5409">
        <ele>344</ele>
        <time>2011-10-04T00:07:19Z</time>
      </trkpt>
      <trkpt lat="46.08386" lon="3.5413">
        <ele>347</ele>
        <time>2011-10-04T00:07:41Z</time>
      </trkpt>
      <trkpt lat="46.08405" lon="3.5413">
        <ele>347</ele>
        <time>2011-10-04T00:07:45Z</time>
      </trkpt>
      <trkpt lat="46.0853" lon="3.5405">
        <ele>355</ele>
        <time>2011-10-04T00:08:21Z</time>
      </trkpt>
      <trkpt lat="46.08627" lon="3.53947">
        <ele>354</ele>
        <time>2011-10-04T00:08:37Z</time>
      </trkpt>
      <trkpt lat="46.08711" lon="3.53839">
        <ele>345</ele>
        <time>2011-10-04T00:08:52Z</time>
      </trkpt>
      <trkpt lat="46.0874" lon="3.53788">
        <ele>345</ele>
        <time>2011-10-04T00:08:58Z</time>
      </trkpt>
      <trkpt lat="46.08821" lon="3.53647">
        <ele>346</ele>
        <time>2011-10-04T00:09:17Z</time>
      </trkpt>
      <trkpt lat="46.08993" lon="3.53489">
        <ele>347</ele>
        <time>2011-10-04T00:09:47Z</time>
      </trkpt>
      <trkpt lat="46.09087" lon="3.53363">
        <ele>347</ele>
        <time>2011-10-04T00:10:04Z</time>
      </trkpt>
      <trkpt lat="46.09101" lon="3.53338">
        <ele>346</ele>
        <time>2011-10-04T00:10:07Z</time>
      </trkpt>
      <trkpt lat="46.09108" lon="3.53296">
        <ele>346</ele>
        <time>2011-10-04T00:10:11Z</time>
      </trkpt>
      <trkpt lat="46.09101" lon="3.53196">
        <ele>345</ele>
        <time>2011-10-04T00:10:20Z</time>
      </trkpt>
      <trkpt lat="46.09102" lon="3.53142">
        <ele>345</ele>
        <time>2011-10-04T00:10:25Z</time>
      </trkpt>
      <trkpt lat="46.09112" lon="3.53116">
        <ele>345</ele>
        <time>2011-10-04T00:10:28Z</time>
      </trkpt>
      <trkpt lat="46.09282" lon="3.52896">
        <ele>345</ele>
        <time>2011-10-04T00:10:58Z</time>
      </trkpt>
      <trkpt lat="46.09292" lon="3.52866">
        <ele>344</ele>
        <time>2011-10-04T00:11:02Z</time>
      </trkpt>
      <trkpt lat="46.09297" lon="3.52828">
        <ele>344</ele>
        <time>2011-10-04T00:11:05Z</time>
      </trkpt>
      <trkpt lat="46.09302" lon="3.52674">
        <ele>344</ele>
        <time>2011-10-04T00:11:19Z</time>
      </trkpt>
      <trkpt lat="46.0932" lon="3.52607">
        <ele>341</ele>
        <time>2011-10-04T00:11:26Z</time>
      </trkpt>
      <trkpt lat="46.09361" lon="3.52576">
        <ele>340</ele>
        <time>2011-10-04T00:11:32Z</time>
      </trkpt>
      <trkpt lat="46.09422" lon="3.5257">
        <ele>343</ele>
        <time>2011-10-04T00:11:48Z</time>
      </trkpt>
      <trkpt lat="46.0945" lon="3.5255">
        <ele>345</ele>
        <time>2011-10-04T00:11:57Z</time>
      </trkpt>
      <trkpt lat="46.09472" lon="3.52501">
        <ele>343</ele>
        <time>2011-10-04T00:12:02Z</time>
      </trkpt>
      <trkpt lat="46.09468" lon="3.52446">
        <ele>342</ele>
        <time>2011-10-04T00:12:07Z</time>
      </trkpt>
      <trkpt lat="46.09513" lon="3.52284">
        <ele>338</ele>
        <time>2011-10-04T00:12:23Z</time>
      </trkpt>
      <trkpt lat="46.09536" lon="3.52157">
        <ele>344</ele>
        <time>2011-10-04T00:12:50Z</time>
      </trkpt>
      <trkpt lat="46.09546" lon="3.52054">
        <ele>347</ele>
        <time>2011-10-04T00:13:07Z</time>
      </trkpt>
      <trkpt lat="46.0954" lon="3.51954">
        <ele>350</ele>
        <time>2011-10-04T00:13:23Z</time>
      </trkpt>
      <trkpt lat="46.09558" lon="3.51851">
        <ele>349</ele>
        <time>2011-10-04T00:13:33Z</time>
      </trkpt>
      <trkpt lat="46.0959" lon="3.5176">
        <ele>349</ele>
        <time>2011-10-04T00:13:42Z</time>
      </trkpt>
      <trkpt lat="46.09644" lon="3.51692">
        <ele>347</ele>
        <time>2011-10-04T00:13:52Z</time>
      </trkpt>
      <trkpt lat="46.09698" lon="3.51688">
        <ele>347</ele>
        <time>2011-10-04T00:13:59Z</time>
      </trkpt>
      <trkpt lat="46.09739" lon="3.51678">
        <ele>348</ele>
        <time>2011-10-04T00:14:09Z</time>
      </trkpt>
      <trkpt lat="46.09795" lon="3.51644">
        <ele>351</ele>
        <time>2011-10-04T00:14:23Z</time>
      </trkpt>
      <trkpt lat="46.09836" lon="3.51634">
        <ele>348</ele>
        <time>2011-10-04T00:14:28Z</time>
      </trkpt>
      <trkpt lat="46.09876" lon="3.51638">
        <ele>345</ele>
        <time>2011-10-04T00:14:33Z</time>
      </trkpt>
      <trkpt lat="46.09897" lon="3.51635">
        <ele>344</ele>
        <time>2011-10-04T00:14:36Z</time>
      </trkpt>
      <trkpt lat="46.09952" lon="3.51586">
        <ele>346</ele>
        <time>2011-10-04T00:14:51Z</time>
      </trkpt>
      <trkpt lat="46.0996" lon="3.51552">
        <ele>347</ele>
        <time>2011-10-04T00:14:56Z</time>
      </trkpt>
      <trkpt lat="46.0996" lon="3.51483">
        <ele>349</ele>
        <time>2011-10-04T00:15:07Z</time>
      </trkpt>
      <trkpt lat="46.09969" lon="3.51422">
        <ele>344</ele>
        <time>2011-10-04T00:15:12Z</time>
      </trkpt>
      <trkpt lat="46.10005" lon="3.51352">
        <ele>339</ele>
        <time>2011-10-04T00:15:21Z</time>
      </trkpt>
      <trkpt lat="46.10044" lon="3.51308">
        <ele>336</ele>
        <time>2011-10-04T00:15:27Z</time>
      </trkpt>
      <trkpt lat="46.10184" lon="3.51217">
        <ele>328</ele>
        <time>2011-10-04T00:15:48Z</time>
      </trkpt>
      <trkpt lat="46.10202" lon="3.51198">
        <ele>329</ele>
        <time>2011-10-04T00:15:53Z</time>
      </trkpt>
      <trkpt lat="46.10226" lon="3.51147">
        <ele>331</ele>
        <time>2011-10-04T00:16:04Z</time>
      </trkpt>
      <trkpt lat="46.10236" lon="3.51123">
        <ele>332</ele>
        <time>2011-10-04T00:16:09Z</time>
      </trkpt>
      <trkpt lat="46.10242" lon="3.51097">
        <ele>333</ele>
        <time>2011-10-04T00:16:13Z</time>
      </trkpt>
      <trkpt lat="46.1023" lon="3.51051">
        <ele>334</ele>
        <time>2011-10-04T00:16:22Z</time>
      </trkpt>
      <trkpt lat="46.10154" lon="3.50934">
        <ele>340</ele>
        <time>2011-10-04T00:16:50Z</time>
      </trkpt>
      <trkpt lat="46.10131" lon="3.50788">
        <ele>342</ele>
        <time>2011-10-04T00:17:08Z</time>
      </trkpt>
      <trkpt lat="46.1013" lon="3.50731">
        <ele>341</ele>
        <time>2011-10-04T00:17:14Z</time>
      </trkpt>
      <trkpt lat="46.10185" lon="3.50419">
        <ele>336</ele>
        <time>2011-10-04T00:17:43Z</time>
      </trkpt>
      <trkpt lat="46.1025" lon="3.50173">
        <ele>321</ele>
        <time>2011-10-04T00:18:08Z</time>
      </trkpt>
      <trkpt lat="46.10388" lon="3.49864">
        <ele>315</ele>
        <time>2011-10-04T00:18:42Z</time>
      </trkpt>
      <trkpt lat="46.10728" lon="3.49223">
        <ele>312</ele>
        <time>2011-10-04T00:19:57Z</time>
      </trkpt>
      <trkpt lat="46.10817" lon="3.49101">
        <ele>311</ele>
        <time>2011-10-04T00:20:13Z</time>
      </trkpt>
      <trkpt lat="46.10972" lon="3.48755">
        <ele>313</ele>
        <time>2011-10-04T00:20:56Z</time>
      </trkpt>
      <trkpt lat="46.10982" lon="3.48571">
        <ele>314</ele>
        <time>2011-10-04T00:21:15Z</time>
      </trkpt>
      <trkpt lat="46.10943" lon="3.48409">
        <ele>316</ele>
        <time>2011-10-04T00:21:36Z</time>
      </trkpt>
      <trkpt lat="46.10946" lon="3.48305">
        <ele>315</ele>
        <time>2011-10-04T00:21:46Z</time>
      </trkpt>
      <trkpt lat="46.10975" lon="3.48241">
        <ele>315</ele>
        <time>2011-10-04T00:21:53Z</time>
      </trkpt>
      <trkpt lat="46.11031" lon="3.48194">
        <ele>310</ele>
        <time>2011-10-04T00:22:01Z</time>
      </trkpt>
      <trkpt lat="46.11153" lon="3.48213">
        <ele>301</ele>
        <time>2011-10-04T00:22:18Z</time>
      </trkpt>
      <trkpt lat="46.11415" lon="3.48079">
        <ele>313</ele>
        <time>2011-10-04T00:23:24Z</time>
      </trkpt>
      <trkpt lat="46.11463" lon="3.47963">
        <ele>308</ele>
        <time>2011-10-04T00:23:36Z</time>
      </trkpt>
      <trkpt lat="46.11523" lon="3.47783">
        <ele>304</ele>
        <time>2011-10-04T00:23:55Z</time>
      </trkpt>
      <trkpt lat="46.11541" lon="3.47744">
        <ele>302</ele>
        <time>2011-10-04T00:23:59Z</time>
      </trkpt>
      <trkpt lat="46.11633" lon="3.47644">
        <ele>298</ele>
        <time>2011-10-04T00:24:15Z</time>
      </trkpt>
      <trkpt lat="46.11691" lon="3.47545">
        <ele>296</ele>
        <time>2011-10-04T00:24:27Z</time>
      </trkpt>
      <trkpt lat="46.11697" lon="3.47534">
        <ele>296</ele>
        <time>2011-10-04T00:24:28Z</time>
      </trkpt>
      <trkpt lat="46.11753" lon="3.47437">
        <ele>298</ele>
        <time>2011-10-04T00:24:44Z</time>
      </trkpt>
      <trkpt lat="46.11798" lon="3.47419">
        <ele>298</ele>
        <time>2011-10-04T00:24:52Z</time>
      </trkpt>
      <trkpt lat="46.11831" lon="3.47419">
        <ele>298</ele>
        <time>2011-10-04T00:24:57Z</time>
      </trkpt>
      <trkpt lat="46.11862" lon="3.47435">
        <ele>299</ele>
        <time>2011-10-04T00:25:02Z</time>
      </trkpt>
      <trkpt lat="46.11915" lon="3.47486">
        <ele>302</ele>
        <time>2011-10-04T00:25:18Z</time>
      </trkpt>
      <trkpt lat="46.12006" lon="3.47538">
        <ele>307</ele>
        <time>2011-10-04T00:25:43Z</time>
      </trkpt>
      <trkpt lat="46.12057" lon="3.4754">
        <ele>303</ele>
        <time>2011-10-04T00:25:49Z</time>
      </trkpt>
      <trkpt lat="46.12087" lon="3.47531">
        <ele>301</ele>
        <time>2011-10-04T00:25:53Z</time>
      </trkpt>
      <trkpt lat="46.12159" lon="3.47514">
        <ele>297</ele>
        <time>2011-10-04T00:26:03Z</time>
      </trkpt>
      <trkpt lat="46.12279" lon="3.475">
        <ele>297</ele>
        <time>2011-10-04T00:26:19Z</time>
      </trkpt>
      <trkpt lat="46.12315" lon="3.47481">
        <ele>296</ele>
        <time>2011-10-04T00:26:24Z</time>
      </trkpt>
      <trkpt lat="46.12377" lon="3.47469">
        <ele>295</ele>
        <time>2011-10-04T00:26:33Z</time>
      </trkpt>
      <trkpt lat="46.12436" lon="3.47461">
        <ele>296</ele>
        <time>2011-10-04T00:26:45Z</time>
      </trkpt>
      <trkpt lat="46.12473" lon="3.47416">
        <ele>298</ele>
        <time>2011-10-04T00:26:54Z</time>
      </trkpt>
      <trkpt lat="46.12484" lon="3.47376">
        <ele>296</ele>
        <time>2011-10-04T00:26:58Z</time>
      </trkpt>
      <trkpt lat="46.12485" lon="3.47315">
        <ele>295</ele>
        <time>2011-10-04T00:27:04Z</time>
      </trkpt>
      <trkpt lat="46.12617" lon="3.46976">
        <ele>285</ele>
        <time>2011-10-04T00:27:40Z</time>
      </trkpt>
      <trkpt lat="46.12628" lon="3.46947">
        <ele>284</ele>
        <time>2011-10-04T00:27:43Z</time>
      </trkpt>
      <trkpt lat="46.12648" lon="3.46918">
        <ele>283</ele>
        <time>2011-10-04T00:27:47Z</time>
      </trkpt>
      <trkpt lat="46.12786" lon="3.46794">
        <ele>279</ele>
        <time>2011-10-04T00:28:09Z</time>
      </trkpt>
      <trkpt lat="46.12863" lon="3.46735">
        <ele>278</ele>
        <time>2011-10-04T00:28:20Z</time>
      </trkpt>
      <trkpt lat="46.12907" lon="3.46686">
        <ele>278</ele>
        <time>2011-10-04T00:28:28Z</time>
      </trkpt>
      <trkpt lat="46.1307" lon="3.46476">
        <ele>276</ele>
        <time>2011-10-04T00:28:57Z</time>
      </trkpt>
      <trkpt lat="46.13072" lon="3.46473">
        <ele>276</ele>
        <time>2011-10-04T00:28:57Z</time>
      </trkpt>
      <trkpt lat="46.13073" lon="3.46478">
        <ele>276</ele>
        <time>2011-10-04T00:28:58Z</time>
      </trkpt>
      <trkpt lat="46.13133" lon="3.4647">
        <ele>276</ele>
        <time>2011-10-04T00:29:06Z</time>
      </trkpt>
      <trkpt lat="46.13193" lon="3.46343">
        <ele>276</ele>
        <time>2011-10-04T00:29:20Z</time>
      </trkpt>
      <trkpt lat="46.13242" lon="3.46176">
        <ele>275</ele>
        <time>2011-10-04T00:29:37Z</time>
      </trkpt>
      <trkpt lat="46.13266" lon="3.46093">
        <ele>275</ele>
        <time>2011-10-04T00:29:45Z</time>
      </trkpt>
      <trkpt lat="46.13279" lon="3.46057">
        <ele>275</ele>
        <time>2011-10-04T00:29:49Z</time>
      </trkpt>
      <trkpt lat="46.1329" lon="3.46026">
        <ele>275</ele>
        <time>2011-10-04T00:29:52Z</time>
      </trkpt>
      <trkpt lat="46.13296" lon="3.46009">
        <ele>275</ele>
        <time>2011-10-04T00:29:54Z</time>
      </trkpt>
      <trkpt lat="46.13308" lon="3.45977">
        <ele>275</ele>
        <time>2011-10-04T00:29:57Z</time>
      </trkpt>
      <trkpt lat="46.13312" lon="3.45971">
        <ele>275</ele>
        <time>2011-10-04T00:29:58Z</time>
      </trkpt>
      <trkpt lat="46.1332" lon="3.45971">
        <ele>275</ele>
        <time>2011-10-04T00:29:59Z</time>
      </trkpt>
      <trkpt lat="46.13328" lon="3.45963">
        <ele>275</ele>
        <time>2011-10-04T00:30:00Z</time>
      </trkpt>
      <trkpt lat="46.13329" lon="3.4596">
        <ele>275</ele>
        <time>2011-10-04T00:30:01Z</time>
      </trkpt>
      <trkpt lat="46.13329" lon="3.45953">
        <ele>275</ele>
        <time>2011-10-04T00:30:01Z</time>
      </trkpt>
      <trkpt lat="46.13327" lon="3.45947">
        <ele>275</ele>
        <time>2011-10-04T00:30:02Z</time>
      </trkpt>
      <trkpt lat="46.13325" lon="3.45941">
        <ele>275</ele>
        <time>2011-10-04T00:30:03Z</time>
      </trkpt>
      <trkpt lat="46.13325" lon="3.45923">
        <ele>275</ele>
        <time>2011-10-04T00:30:05Z</time>
      </trkpt>
      <trkpt lat="46.13329" lon="3.45908">
        <ele>275</ele>
        <time>2011-10-04T00:30:06Z</time>
      </trkpt>
      <trkpt lat="46.13343" lon="3.45881">
        <ele>275</ele>
        <time>2011-10-04T00:30:10Z</time>
      </trkpt>
      <trkpt lat="46.13379" lon="3.45808">
        <ele>276</ele>
        <time>2011-10-04T00:30:19Z</time>
      </trkpt>
      <trkpt lat="46.13395" lon="3.45775">
        <ele>276</ele>
        <time>2011-10-04T00:30:23Z</time>
      </trkpt>
      <trkpt lat="46.13409" lon="3.45747">
        <ele>276</ele>
        <time>2011-10-04T00:30:26Z</time>
      </trkpt>
      <trkpt lat="46.13419" lon="3.45734">
        <ele>276</ele>
        <time>2011-10-04T00:30:28Z</time>
      </trkpt>
      <trkpt lat="46.13427" lon="3.45731">
        <ele>276</ele>
        <time>2011-10-04T00:30:29Z</time>
      </trkpt>
      <trkpt lat="46.13432" lon="3.45734">
        <ele>276</ele>
        <time>2011-10-04T00:30:30Z</time>
      </trkpt>
      <trkpt lat="46.1344" lon="3.45733">
        <ele>276</ele>
        <time>2011-10-04T00:30:31Z</time>
      </trkpt>
      <trkpt lat="46.13445" lon="3.45728">
        <ele>276</ele>
        <time>2011-10-04T00:30:32Z</time>
      </trkpt>
      <trkpt lat="46.13447" lon="3.45721">
        <ele>276</ele>
        <time>2011-10-04T00:30:33Z</time>
      </trkpt>
      <trkpt lat="46.13446" lon="3.45709">
        <ele>275</ele>
        <time>2011-10-04T00:30:34Z</time>
      </trkpt>
      <trkpt lat="46.1344" lon="3.45701">
        <ele>275</ele>
        <time>2011-10-04T00:30:35Z</time>
      </trkpt>
      <trkpt lat="46.1344" lon="3.45689">
        <ele>275</ele>
        <time>2011-10-04T00:30:36Z</time>
      </trkpt>
      <trkpt lat="46.13448" lon="3.45667">
        <ele>275</ele>
        <time>2011-10-04T00:30:38Z</time>
      </trkpt>
      <trkpt lat="46.13451" lon="3.45649">
        <ele>275</ele>
        <time>2011-10-04T00:30:40Z</time>
      </trkpt>
      <trkpt lat="46.13452" lon="3.4563">
        <ele>275</ele>
        <time>2011-10-04T00:30:42Z</time>
      </trkpt>
      <trkpt lat="46.13449" lon="3.45613">
        <ele>275</ele>
        <time>2011-10-04T00:30:43Z</time>
      </trkpt>
      <trkpt lat="46.13444" lon="3.45598">
        <ele>275</ele>
        <time>2011-10-04T00:30:45Z</time>
      </trkpt>
      <trkpt lat="46.13437" lon="3.45576">
        <ele>275</ele>
        <time>2011-10-04T00:30:47Z</time>
      </trkpt>
      <trkpt lat="46.13432" lon="3.45544">
        <ele>274</ele>
        <time>2011-10-04T00:30:50Z</time>
      </trkpt>
      <trkpt lat="46.13431" lon="3.45524">
        <ele>273</ele>
        <time>2011-10-04T00:30:52Z</time>
      </trkpt>
      <trkpt lat="46.13431" lon="3.4549">
        <ele>273</ele>
        <time>2011-10-04T00:30:55Z</time>
      </trkpt>
      <trkpt lat="46.13432" lon="3.45479">
        <ele>272</ele>
        <time>2011-10-04T00:30:56Z</time>
      </trkpt>
      <trkpt lat="46.13434" lon="3.45466">
        <ele>272</ele>
        <time>2011-10-04T00:30:57Z</time>
      </trkpt>
      <trkpt lat="46.13439" lon="3.45448">
        <ele>272</ele>
        <time>2011-10-04T00:30:59Z</time>
      </trkpt>
      <trkpt lat="46.13442" lon="3.4544">
        <ele>272</ele>
        <time>2011-10-04T00:31:00Z</time>
      </trkpt>
      <trkpt lat="46.13459" lon="3.45399">
        <ele>271</ele>
        <time>2011-10-04T00:31:04Z</time>
      </trkpt>
      <trkpt lat="46.13465" lon="3.45388">
        <ele>271</ele>
        <time>2011-10-04T00:31:06Z</time>
      </trkpt>
      <trkpt lat="46.13485" lon="3.45351">
        <ele>271</ele>
        <time>2011-10-04T00:31:10Z</time>
      </trkpt>
      <trkpt lat="46.13493" lon="3.45337">
        <ele>270</ele>
        <time>2011-10-04T00:31:12Z</time>
      </trkpt>
      <trkpt lat="46.13533" lon="3.45257">
        <ele>270</ele>
        <time>2011-10-04T00:31:21Z</time>
      </trkpt>
      <trkpt lat="46.13543" lon="3.4524">
        <ele>269</ele>
        <time>2011-10-04T00:31:23Z</time>
      </trkpt>
      <trkpt lat="46.13547" lon="3.45208">
        <ele>269</ele>
        <time>2011-10-04T00:31:26Z</time>
      </trkpt>
      <trkpt lat="46.13556" lon="3.45192">
        <ele>269</ele>
        <time>2011-10-04T00:31:28Z</time>
      </trkpt>
      <trkpt lat="46.13567" lon="3.45169">
        <ele>268</ele>
        <time>2011-10-04T00:31:30Z</time>
      </trkpt>
      <trkpt lat="46.13586" lon="3.45155">
        <ele>268</ele>
        <time>2011-10-04T00:31:33Z</time>
      </trkpt>
      <trkpt lat="46.13632" lon="3.45066">
        <ele>267</ele>
        <time>2011-10-04T00:31:44Z</time>
      </trkpt>
      <trkpt lat="46.13638" lon="3.45054">
        <ele>267</ele>
        <time>2011-10-04T00:31:45Z</time>
      </trkpt>
      <trkpt lat="46.13647" lon="3.45036">
        <ele>267</ele>
        <time>2011-10-04T00:31:47Z</time>
      </trkpt>
      <trkpt lat="46.13669" lon="3.44994">
        <ele>267</ele>
        <time>2011-10-04T00:31:52Z</time>
      </trkpt>
      <trkpt lat="46.13676" lon="3.44979">
        <ele>267</ele>
        <time>2011-10-04T00:31:54Z</time>
      </trkpt>
      <trkpt lat="46.13684" lon="3.44966">
        <ele>267</ele>
        <time>2011-10-04T00:31:55Z</time>
      </trkpt>
      <trkpt lat="46.13689" lon="3.44955">
        <ele>267</ele>
        <time>2011-10-04T00:31:56Z</time>
      </trkpt>
      <trkpt lat="46.13694" lon="3.44944">
        <ele>267</ele>
        <time>2011-10-04T00:31:58Z</time>
      </trkpt>
      <trkpt lat="46.13742" lon="3.44852">
        <ele>267</ele>
        <time>2011-10-04T00:32:08Z</time>
      </trkpt>
      <trkpt lat="46.13761" lon="3.44822">
        <ele>267</ele>
        <time>2011-10-04T00:32:12Z</time>
      </trkpt>
      <trkpt lat="46.13768" lon="3.44819">
        <ele>267</ele>
        <time>2011-10-04T00:32:13Z</time>
      </trkpt>
      <trkpt lat="46.13771" lon="3.44815">
        <ele>267</ele>
        <time>2011-10-04T00:32:14Z</time>
      </trkpt>
      <trkpt lat="46.13774" lon="3.44805">
        <ele>267</ele>
        <time>2011-10-04T00:32:15Z</time>
      </trkpt>
      <trkpt lat="46.13773" lon="3.44794">
        <ele>267</ele>
        <time>2011-10-04T00:32:16Z</time>
      </trkpt>
      <trkpt lat="46.13786" lon="3.44784">
        <ele>267</ele>
        <time>2011-10-04T00:32:18Z</time>
      </trkpt>
      <trkpt lat="46.13833" lon="3.4475">
        <ele>267</ele>
        <time>2011-10-04T00:32:26Z</time>
      </trkpt>
      <trkpt lat="46.13867" lon="3.44725">
        <ele>268</ele>
        <time>2011-10-04T00:32:32Z</time>
      </trkpt>
      <trkpt lat="46.13889" lon="3.44708">
        <ele>268</ele>
        <time>2011-10-04T00:32:37Z</time>
      </trkpt>
      <trkpt lat="46.13966" lon="3.44651">
        <ele>271</ele>
        <time>2011-10-04T00:32:54Z</time>
      </trkpt>
      <trkpt lat="46.13986" lon="3.44637">
        <ele>271</ele>
        <time>2011-10-04T00:32:58Z</time>
      </trkpt>
      <trkpt lat="46.1401" lon="3.44619">
        <ele>272</ele>
        <time>2011-10-04T00:33:03Z</time>
      </trkpt>
      <trkpt lat="46.14028" lon="3.44603">
        <ele>272</ele>
        <time>2011-10-04T00:33:07Z</time>
      </trkpt>
      <trkpt lat="46.14046" lon="3.44583">
        <ele>273</ele>
        <time>2011-10-04T00:33:11Z</time>
      </trkpt>
      <trkpt lat="46.14059" lon="3.44557">
        <ele>273</ele>
        <time>2011-10-04T00:33:15Z</time>
      </trkpt>
      <trkpt lat="46.14063" lon="3.44549">
        <ele>273</ele>
        <time>2011-10-04T00:33:16Z</time>
      </trkpt>
      <trkpt lat="46.14072" lon="3.44537">
        <ele>273</ele>
        <time>2011-10-04T00:33:19Z</time>
      </trkpt>
      <trkpt lat="46.14079" lon="3.44534">
        <ele>273</ele>
        <time>2011-10-04T00:33:20Z</time>
      </trkpt>
      <trkpt lat="46.14087" lon="3.44533">
        <ele>273</ele>
        <time>2011-10-04T00:33:21Z</time>
      </trkpt>
      <trkpt lat="46.14091" lon="3.44537">
        <ele>273</ele>
        <time>2011-10-04T00:33:22Z</time>
      </trkpt>
      <trkpt lat="46.14095" lon="3.44539">
        <ele>274</ele>
        <time>2011-10-04T00:33:23Z</time>
      </trkpt>
      <trkpt lat="46.14101" lon="3.44539">
        <ele>274</ele>
        <time>2011-10-04T00:33:24Z</time>
      </trkpt>
      <trkpt lat="46.14106" lon="3.44536">
        <ele>274</ele>
        <time>2011-10-04T00:33:25Z</time>
      </trkpt>
      <trkpt lat="46.14111" lon="3.44531">
        <ele>274</ele>
        <time>2011-10-04T00:33:26Z</time>
      </trkpt>
      <trkpt lat="46.14112" lon="3.44527">
        <ele>274</ele>
        <time>2011-10-04T00:33:26Z</time>
      </trkpt>
      <trkpt lat="46.14114" lon="3.4452">
        <ele>274</ele>
        <time>2011-10-04T00:33:27Z</time>
      </trkpt>
      <trkpt lat="46.14114" lon="3.44512">
        <ele>274</ele>
        <time>2011-10-04T00:33:28Z</time>
      </trkpt>
      <trkpt lat="46.14112" lon="3.44505">
        <ele>274</ele>
        <time>2011-10-04T00:33:29Z</time>
      </trkpt>
      <trkpt lat="46.14109" lon="3.44499">
        <ele>274</ele>
        <time>2011-10-04T00:33:30Z</time>
      </trkpt>
      <trkpt lat="46.14105" lon="3.44494">
        <ele>274</ele>
        <time>2011-10-04T00:33:31Z</time>
      </trkpt>
      <trkpt lat="46.14105" lon="3.44485">
        <ele>274</ele>
        <time>2011-10-04T00:33:32Z</time>
      </trkpt>
      <trkpt lat="46.14106" lon="3.44475">
        <ele>275</ele>
        <time>2011-10-04T00:33:33Z</time>
      </trkpt>
      <trkpt lat="46.14109" lon="3.44461">
        <ele>275</ele>
        <time>2011-10-04T00:33:35Z</time>
      </trkpt>
      <trkpt lat="46.14205" lon="3.44281">
        <ele>276</ele>
        <time>2011-10-04T00:33:58Z</time>
      </trkpt>
      <trkpt lat="46.14212" lon="3.44266">
        <ele>276</ele>
        <time>2011-10-04T00:34:01Z</time>
      </trkpt>
      <trkpt lat="46.14285" lon="3.44139">
        <ele>283</ele>
        <time>2011-10-04T00:34:32Z</time>
      </trkpt>
      <trkpt lat="46.14303" lon="3.44097">
        <ele>284</ele>
        <time>2011-10-04T00:34:40Z</time>
      </trkpt>
      <trkpt lat="46.14306" lon="3.4409">
        <ele>285</ele>
        <time>2011-10-04T00:34:42Z</time>
      </trkpt>
      <trkpt lat="46.14322" lon="3.44031">
        <ele>287</ele>
        <time>2011-10-04T00:34:53Z</time>
      </trkpt>
      <trkpt lat="46.14344" lon="3.43938">
        <ele>291</ele>
        <time>2011-10-04T00:35:11Z</time>
      </trkpt>
      <trkpt lat="46.14376" lon="3.4378">
        <ele>295</ele>
        <time>2011-10-04T00:35:36Z</time>
      </trkpt>
      <trkpt lat="46.14399" lon="3.43666">
        <ele>297</ele>
        <time>2011-10-04T00:35:52Z</time>
      </trkpt>
      <trkpt lat="46.14418" lon="3.43583">
        <ele>299</ele>
        <time>2011-10-04T00:36:05Z</time>
      </trkpt>
      <trkpt lat="46.14429" lon="3.43547">
        <ele>300</ele>
        <time>2011-10-04T00:36:12Z</time>
      </trkpt>
      <trkpt lat="46.14444" lon="3.4351">
        <ele>302</ele>
        <time>2011-10-04T00:36:21Z</time>
      </trkpt>
      <trkpt lat="46.14466" lon="3.43465">
        <ele>305</ele>
        <time>2011-10-04T00:36:32Z</time>
      </trkpt>
      <trkpt lat="46.1459" lon="3.43189">
        <ele>310</ele>
        <time>2011-10-04T00:37:14Z</time>
      </trkpt>
      <trkpt lat="46.14607" lon="3.43152">
        <ele>310</ele>
        <time>2011-10-04T00:37:18Z</time>
      </trkpt>
      <trkpt lat="46.14664" lon="3.43027">
        <ele>310</ele>
        <time>2011-10-04T00:37:32Z</time>
      </trkpt>
      <trkpt lat="46.14677" lon="3.42994">
        <ele>309</ele>
        <time>2011-10-04T00:37:36Z</time>
      </trkpt>
      <trkpt lat="46.14686" lon="3.42965">
        <ele>309</ele>
        <time>2011-10-04T00:37:39Z</time>
      </trkpt>
      <trkpt lat="46.14688" lon="3.42929">
        <ele>309</ele>
        <time>2011-10-04T00:37:42Z</time>
      </trkpt>
      <trkpt lat="46.14688" lon="3.42859">
        <ele>309</ele>
        <time>2011-10-04T00:37:48Z</time>
      </trkpt>
      <trkpt lat="46.14689" lon="3.42816">
        <ele>308</ele>
        <time>2011-10-04T00:37:52Z</time>
      </trkpt>
      <trkpt lat="46.14691" lon="3.4279">
        <ele>308</ele>
        <time>2011-10-04T00:37:55Z</time>
      </trkpt>
      <trkpt lat="46.14691" lon="3.42768">
        <ele>308</ele>
        <time>2011-10-04T00:37:57Z</time>
      </trkpt>
      <trkpt lat="46.14692" lon="3.42724">
        <ele>308</ele>
        <time>2011-10-04T00:38:01Z</time>
      </trkpt>
      <trkpt lat="46.14693" lon="3.42696">
        <ele>308</ele>
        <time>2011-10-04T00:38:03Z</time>
      </trkpt>
      <trkpt lat="46.14698" lon="3.42669">
        <ele>308</ele>
        <time>2011-10-04T00:38:06Z</time>
      </trkpt>
      <trkpt lat="46.14707" lon="3.42641">
        <ele>308</ele>
        <time>2011-10-04T00:38:09Z</time>
      </trkpt>
      <trkpt lat="46.14717" lon="3.42622">
        <ele>308</ele>
        <time>2011-10-04T00:38:11Z</time>
      </trkpt>
      <trkpt lat="46.14734" lon="3.42596">
        <ele>308</ele>
        <time>2011-10-04T00:38:14Z</time>
      </trkpt>
      <trkpt lat="46.14729" lon="3.42561">
        <ele>308</ele>
        <time>2011-10-04T00:38:18Z</time>
      </trkpt>
      <trkpt lat="46.1473" lon="3.42538">
        <ele>308</ele>
        <time>2011-10-04T00:38:20Z</time>
      </trkpt>
      <trkpt lat="46.14779" lon="3.42302">
        <ele>309</ele>
        <time>2011-10-04T00:38:45Z</time>
      </trkpt>
      <trkpt lat="46.14806" lon="3.42164">
        <ele>312</ele>
        <time>2011-10-04T00:39:06Z</time>
      </trkpt>
      <trkpt lat="46.14831" lon="3.4208">
        <ele>310</ele>
        <time>2011-10-04T00:39:14Z</time>
      </trkpt>
      <trkpt lat="46.14845" lon="3.42052">
        <ele>310</ele>
        <time>2011-10-04T00:39:17Z</time>
      </trkpt>
      <trkpt lat="46.14857" lon="3.42039">
        <ele>310</ele>
        <time>2011-10-04T00:39:19Z</time>
      </trkpt>
      <trkpt lat="46.14871" lon="3.42027">
        <ele>309</ele>
        <time>2011-10-04T00:39:21Z</time>
      </trkpt>
      <trkpt lat="46.14919" lon="3.41997">
        <ele>308</ele>
        <time>2011-10-04T00:39:28Z</time>
      </trkpt>
      <trkpt lat="46.1497" lon="3.41953">
        <ele>308</ele>
        <time>2011-10-04T00:39:36Z</time>
      </trkpt>
      <trkpt lat="46.14988" lon="3.41935">
        <ele>306</ele>
        <time>2011-10-04T00:39:39Z</time>
      </trkpt>
      <trkpt lat="46.15006" lon="3.41914">
        <ele>304</ele>
        <time>2011-10-04T00:39:42Z</time>
      </trkpt>
      <trkpt lat="46.15045" lon="3.41855">
        <ele>301</ele>
        <time>2011-10-04T00:39:50Z</time>
      </trkpt>
      <trkpt lat="46.15067" lon="3.4182">
        <ele>298</ele>
        <time>2011-10-04T00:39:54Z</time>
      </trkpt>
      <trkpt lat="46.15083" lon="3.418">
        <ele>297</ele>
        <time>2011-10-04T00:39:57Z</time>
      </trkpt>
      <trkpt lat="46.15101" lon="3.41783">
        <ele>296</ele>
        <time>2011-10-04T00:40:00Z</time>
      </trkpt>
      <trkpt lat="46.15117" lon="3.41776">
        <ele>295</ele>
        <time>2011-10-04T00:40:02Z</time>
      </trkpt>
      <trkpt lat="46.15132" lon="3.41769">
        <ele>293</ele>
        <time>2011-10-04T00:40:04Z</time>
      </trkpt>
      <trkpt lat="46.15173" lon="3.41744">
        <ele>291</ele>
        <time>2011-10-04T00:40:10Z</time>
      </trkpt>
      <trkpt lat="46.15188" lon="3.41734">
        <ele>289</ele>
        <time>2011-10-04T00:40:12Z</time>
      </trkpt>
      <trkpt lat="46.15229" lon="3.41711">
        <ele>287</ele>
        <time>2011-10-04T00:40:18Z</time>
      </trkpt>
      <trkpt lat="46.15245" lon="3.41702">
        <ele>286</ele>
        <time>2011-10-04T00:40:21Z</time>
      </trkpt>
      <trkpt lat="46.15299" lon="3.41671">
        <ele>282</ele>
        <time>2011-10-04T00:40:28Z</time>
      </trkpt>
      <trkpt lat="46.15343" lon="3.41645">
        <ele>280</ele>
        <time>2011-10-04T00:40:35Z</time>
      </trkpt>
      <trkpt lat="46.15356" lon="3.41628">
        <ele>279</ele>
        <time>2011-10-04T00:40:37Z</time>
      </trkpt>
      <trkpt lat="46.15374" lon="3.41594">
        <ele>277</ele>
        <time>2011-10-04T00:40:41Z</time>
      </trkpt>
      <trkpt lat="46.15391" lon="3.41578">
        <ele>276</ele>
        <time>2011-10-04T00:40:44Z</time>
      </trkpt>
      <trkpt lat="46.15409" lon="3.41571">
        <ele>275</ele>
        <time>2011-10-04T00:40:46Z</time>
      </trkpt>
      <trkpt lat="46.15477" lon="3.41563">
        <ele>272</ele>
        <time>2011-10-04T00:40:55Z</time>
      </trkpt>
      <trkpt lat="46.15487" lon="3.41564">
        <ele>271</ele>
        <time>2011-10-04T00:40:57Z</time>
      </trkpt>
      <trkpt lat="46.15497" lon="3.4154">
        <ele>270</ele>
        <time>2011-10-04T00:40:59Z</time>
      </trkpt>
      <trkpt lat="46.15517" lon="3.415">
        <ele>268</ele>
        <time>2011-10-04T00:41:04Z</time>
      </trkpt>
      <trkpt lat="46.15525" lon="3.41478">
        <ele>267</ele>
        <time>2011-10-04T00:41:06Z</time>
      </trkpt>
      <trkpt lat="46.1553" lon="3.41452">
        <ele>267</ele>
        <time>2011-10-04T00:41:09Z</time>
      </trkpt>
      <trkpt lat="46.15531" lon="3.41429">
        <ele>265</ele>
        <time>2011-10-04T00:41:11Z</time>
      </trkpt>
      <trkpt lat="46.15529" lon="3.41406">
        <ele>264</ele>
        <time>2011-10-04T00:41:13Z</time>
      </trkpt>
      <trkpt lat="46.15523" lon="3.41384">
        <ele>263</ele>
        <time>2011-10-04T00:41:15Z</time>
      </trkpt>
      <trkpt lat="46.15461" lon="3.41221">
        <ele>254</ele>
        <time>2011-10-04T00:41:32Z</time>
      </trkpt>
      <trkpt lat="46.15432" lon="3.41147">
        <ele>251</ele>
        <time>2011-10-04T00:41:40Z</time>
      </trkpt>
      <trkpt lat="46.15412" lon="3.41091">
        <ele>249</ele>
        <time>2011-10-04T00:41:46Z</time>
      </trkpt>
      <trkpt lat="46.15402" lon="3.41062">
        <ele>247</ele>
        <time>2011-10-04T00:41:49Z</time>
      </trkpt>
      <trkpt lat="46.15396" lon="3.41048">
        <ele>247</ele>
        <time>2011-10-04T00:41:50Z</time>
      </trkpt>
      <trkpt lat="46.15378" lon="3.41">
        <ele>245</ele>
        <time>2011-10-04T00:41:56Z</time>
      </trkpt>
      <trkpt lat="46.15359" lon="3.4095">
        <ele>243</ele>
        <time>2011-10-04T00:42:01Z</time>
      </trkpt>
      <trkpt lat="46.15312" lon="3.40828">
        <ele>246</ele>
        <time>2011-10-04T00:42:21Z</time>
      </trkpt>
      <trkpt lat="46.15272" lon="3.40723">
        <ele>247</ele>
        <time>2011-10-04T00:42:36Z</time>
      </trkpt>
      <trkpt lat="46.15263" lon="3.40694">
        <ele>248</ele>
        <time>2011-10-04T00:42:40Z</time>
      </trkpt>
      <trkpt lat="46.15257" lon="3.40664">
        <ele>248</ele>
        <time>2011-10-04T00:42:43Z</time>
      </trkpt>
      <trkpt lat="46.15256" lon="3.40635">
        <ele>248</ele>
        <time>2011-10-04T00:42:45Z</time>
      </trkpt>
      <trkpt lat="46.15262" lon="3.40604">
        <ele>248</ele>
        <time>2011-10-04T00:42:48Z</time>
      </trkpt>
      <trkpt lat="46.15272" lon="3.40571">
        <ele>248</ele>
        <time>2011-10-04T00:42:52Z</time>
      </trkpt>
      <trkpt lat="46.15486" lon="3.39958">
        <ele>248</ele>
        <time>2011-10-04T00:43:55Z</time>
      </trkpt>
      <trkpt lat="46.15486" lon="3.39958">
        <ele>248</ele>
        <time>2011-10-04T00:43:56Z</time>
      </trkpt>
      <trkpt lat="46.15606" lon="3.39613">
        <ele>255</ele>
        <time>2011-10-04T00:44:49Z</time>
      </trkpt>
      <trkpt lat="46.15648" lon="3.39492">
        <ele>257</ele>
        <time>2011-10-04T00:45:06Z</time>
      </trkpt>
      <trkpt lat="46.15679" lon="3.39402">
        <ele>257</ele>
        <time>2011-10-04T00:45:17Z</time>
      </trkpt>
      <trkpt lat="46.15704" lon="3.39351">
        <ele>258</ele>
        <time>2011-10-04T00:45:24Z</time>
      </trkpt>
      <trkpt lat="46.15713" lon="3.39346">
        <ele>258</ele>
        <time>2011-10-04T00:45:25Z</time>
      </trkpt>
      <trkpt lat="46.15718" lon="3.39336">
        <ele>258</ele>
        <time>2011-10-04T00:45:27Z</time>
      </trkpt>
      <trkpt lat="46.15759" lon="3.39328">
        <ele>259</ele>
        <time>2011-10-04T00:45:36Z</time>
      </trkpt>
      <trkpt lat="46.15804" lon="3.39325">
        <ele>261</ele>
        <time>2011-10-04T00:45:45Z</time>
      </trkpt>
      <trkpt lat="46.1586" lon="3.39322">
        <ele>260</ele>
        <time>2011-10-04T00:45:52Z</time>
      </trkpt>
      <trkpt lat="46.15942" lon="3.39317">
        <ele>260</ele>
        <time>2011-10-04T00:46:03Z</time>
      </trkpt>
      <trkpt lat="46.15956" lon="3.39312">
        <ele>260</ele>
        <time>2011-10-04T00:46:05Z</time>
      </trkpt>
      <trkpt lat="46.1605" lon="3.39306">
        <ele>261</ele>
        <time>2011-10-04T00:46:20Z</time>
      </trkpt>
      <trkpt lat="46.16059" lon="3.39306">
        <ele>261</ele>
        <time>2011-10-04T00:46:21Z</time>
      </trkpt>
      <trkpt lat="46.16062" lon="3.39309">
        <ele>261</ele>
        <time>2011-10-04T00:46:22Z</time>
      </trkpt>
      <trkpt lat="46.16083" lon="3.39308">
        <ele>261</ele>
        <time>2011-10-04T00:46:25Z</time>
      </trkpt>
      <trkpt lat="46.16134" lon="3.39305">
        <ele>261</ele>
        <time>2011-10-04T00:46:33Z</time>
      </trkpt>
      <trkpt lat="46.16211" lon="3.39309">
        <ele>262</ele>
        <time>2011-10-04T00:46:44Z</time>
      </trkpt>
      <trkpt lat="46.16249" lon="3.39314">
        <ele>260</ele>
        <time>2011-10-04T00:46:49Z</time>
      </trkpt>
      <trkpt lat="46.16282" lon="3.39323">
        <ele>259</ele>
        <time>2011-10-04T00:46:54Z</time>
      </trkpt>
      <trkpt lat="46.16316" lon="3.39339">
        <ele>259</ele>
        <time>2011-10-04T00:46:58Z</time>
      </trkpt>
      <trkpt lat="46.16344" lon="3.3936">
        <ele>258</ele>
        <time>2011-10-04T00:47:03Z</time>
      </trkpt>
      <trkpt lat="46.16408" lon="3.39414">
        <ele>256</ele>
        <time>2011-10-04T00:47:13Z</time>
      </trkpt>
      <trkpt lat="46.16442" lon="3.39439">
        <ele>256</ele>
        <time>2011-10-04T00:47:18Z</time>
      </trkpt>
      <trkpt lat="46.16468" lon="3.3945">
        <ele>256</ele>
        <time>2011-10-04T00:47:21Z</time>
      </trkpt>
      <trkpt lat="46.1649" lon="3.39455">
        <ele>256</ele>
        <time>2011-10-04T00:47:24Z</time>
      </trkpt>
      <trkpt lat="46.16523" lon="3.39462">
        <ele>256</ele>
        <time>2011-10-04T00:47:29Z</time>
      </trkpt>
      <trkpt lat="46.16589" lon="3.39473">
        <ele>256</ele>
        <time>2011-10-04T00:47:38Z</time>
      </trkpt>
      <trkpt lat="46.16613" lon="3.39477">
        <ele>256</ele>
        <time>2011-10-04T00:47:41Z</time>
      </trkpt>
      <trkpt lat="46.16634" lon="3.39484">
        <ele>256</ele>
        <time>2011-10-04T00:47:44Z</time>
      </trkpt>
      <trkpt lat="46.16761" lon="3.3953">
        <ele>257</ele>
        <time>2011-10-04T00:48:04Z</time>
      </trkpt>
      <trkpt lat="46.16813" lon="3.39553">
        <ele>257</ele>
        <time>2011-10-04T00:48:11Z</time>
      </trkpt>
      <trkpt lat="46.16859" lon="3.3958">
        <ele>257</ele>
        <time>2011-10-04T00:48:17Z</time>
      </trkpt>
      <trkpt lat="46.1702" lon="3.39686">
        <ele>258</ele>
        <time>2011-10-04T00:48:43Z</time>
      </trkpt>
      <trkpt lat="46.17134" lon="3.39757">
        <ele>257</ele>
        <time>2011-10-04T00:49:00Z</time>
      </trkpt>
      <trkpt lat="46.1736" lon="3.39849">
        <ele>256</ele>
        <time>2011-10-04T00:49:31Z</time>
      </trkpt>
      <trkpt lat="46.17396" lon="3.39863">
        <ele>255</ele>
        <time>2011-10-04T00:49:36Z</time>
      </trkpt>
      <trkpt lat="46.17443" lon="3.3988">
        <ele>255</ele>
        <time>2011-10-04T00:49:43Z</time>
      </trkpt>
      <trkpt lat="46.17472" lon="3.39891">
        <ele>255</ele>
        <time>2011-10-04T00:49:47Z</time>
      </trkpt>
      <trkpt lat="46.17503" lon="3.39908">
        <ele>254</ele>
        <time>2011-10-04T00:49:51Z</time>
      </trkpt>
      <trkpt lat="46.17562" lon="3.39937">
        <ele>253</ele>
        <time>2011-10-04T00:50:00Z</time>
      </trkpt>
      <trkpt lat="46.17593" lon="3.39948">
        <ele>252</ele>
        <time>2011-10-04T00:50:04Z</time>
      </trkpt>
      <trkpt lat="46.17634" lon="3.3995">
        <ele>251</ele>
        <time>2011-10-04T00:50:09Z</time>
      </trkpt>
      <trkpt lat="46.17649" lon="3.39951">
        <ele>251</ele>
        <time>2011-10-04T00:50:11Z</time>
      </trkpt>
      <trkpt lat="46.17658" lon="3.39956">
        <ele>251</ele>
        <time>2011-10-04T00:50:13Z</time>
      </trkpt>
      <trkpt lat="46.17664" lon="3.39967">
        <ele>251</ele>
        <time>2011-10-04T00:50:14Z</time>
      </trkpt>
      <trkpt lat="46.17674" lon="3.39974">
        <ele>251</ele>
        <time>2011-10-04T00:50:17Z</time>
      </trkpt>
      <trkpt lat="46.17684" lon="3.39973">
        <ele>251</ele>
        <time>2011-10-04T00:50:19Z</time>
      </trkpt>
      <trkpt lat="46.17696" lon="3.39962">
        <ele>252</ele>
        <time>2011-10-04T00:50:21Z</time>
      </trkpt>
      <trkpt lat="46.17701" lon="3.39943">
        <ele>252</ele>
        <time>2011-10-04T00:50:24Z</time>
      </trkpt>
      <trkpt lat="46.17695" lon="3.39922">
        <ele>252</ele>
        <time>2011-10-04T00:50:27Z</time>
      </trkpt>
      <trkpt lat="46.17698" lon="3.39909">
        <ele>253</ele>
        <time>2011-10-04T00:50:29Z</time>
      </trkpt>
      <trkpt lat="46.17717" lon="3.39869">
        <ele>253</ele>
        <time>2011-10-04T00:50:35Z</time>
      </trkpt>
      <trkpt lat="46.17805" lon="3.39722">
        <ele>257</ele>
        <time>2011-10-04T00:51:01Z</time>
      </trkpt>
      <trkpt lat="46.17845" lon="3.39665">
        <ele>258</ele>
        <time>2011-10-04T00:51:13Z</time>
      </trkpt>
      <trkpt lat="46.17862" lon="3.3963">
        <ele>259</ele>
        <time>2011-10-04T00:51:19Z</time>
      </trkpt>
      <trkpt lat="46.17882" lon="3.3958">
        <ele>261</ele>
        <time>2011-10-04T00:51:27Z</time>
      </trkpt>
      <trkpt lat="46.17917" lon="3.39487">
        <ele>264</ele>
        <time>2011-10-04T00:51:46Z</time>
      </trkpt>
      <trkpt lat="46.17931" lon="3.39461">
        <ele>266</ele>
        <time>2011-10-04T00:51:52Z</time>
      </trkpt>
      <trkpt lat="46.17946" lon="3.39442">
        <ele>265</ele>
        <time>2011-10-04T00:51:55Z</time>
      </trkpt>
      <trkpt lat="46.1799" lon="3.39402">
        <ele>265</ele>
        <time>2011-10-04T00:52:02Z</time>
      </trkpt>
      <trkpt lat="46.18019" lon="3.39376">
        <ele>265</ele>
        <time>2011-10-04T00:52:06Z</time>
      </trkpt>
      <trkpt lat="46.18121" lon="3.39291">
        <ele>266</ele>
        <time>2011-10-04T00:52:24Z</time>
      </trkpt>
      <trkpt lat="46.18307" lon="3.39173">
        <ele>266</ele>
        <time>2011-10-04T00:52:51Z</time>
      </trkpt>
      <trkpt lat="46.18318" lon="3.39172">
        <ele>266</ele>
        <time>2011-10-04T00:52:53Z</time>
      </trkpt>
      <trkpt lat="46.18405" lon="3.3917">
        <ele>266</ele>
        <time>2011-10-04T00:53:05Z</time>
      </trkpt>
      <trkpt lat="46.18447" lon="3.39173">
        <ele>266</ele>
        <time>2011-10-04T00:53:10Z</time>
      </trkpt>
      <trkpt lat="46.18461" lon="3.3917">
        <ele>266</ele>
        <time>2011-10-04T00:53:12Z</time>
      </trkpt>
      <trkpt lat="46.18466" lon="3.39164">
        <ele>266</ele>
        <time>2011-10-04T00:53:13Z</time>
      </trkpt>
      <trkpt lat="46.18465" lon="3.39144">
        <ele>266</ele>
        <time>2011-10-04T00:53:15Z</time>
      </trkpt>
      <trkpt lat="46.18471" lon="3.39122">
        <ele>266</ele>
        <time>2011-10-04T00:53:17Z</time>
      </trkpt>
      <trkpt lat="46.18478" lon="3.391">
        <ele>266</ele>
        <time>2011-10-04T00:53:19Z</time>
      </trkpt>
      <trkpt lat="46.1848" lon="3.39092">
        <ele>266</ele>
        <time>2011-10-04T00:53:20Z</time>
      </trkpt>
      <trkpt lat="46.18486" lon="3.39082">
        <ele>265</ele>
        <time>2011-10-04T00:53:21Z</time>
      </trkpt>
      <trkpt lat="46.18504" lon="3.39066">
        <ele>264</ele>
        <time>2011-10-04T00:53:24Z</time>
      </trkpt>
      <trkpt lat="46.18552" lon="3.39033">
        <ele>262</ele>
        <time>2011-10-04T00:53:31Z</time>
      </trkpt>
      <trkpt lat="46.18554" lon="3.39032">
        <ele>262</ele>
        <time>2011-10-04T00:53:31Z</time>
      </trkpt>
      <trkpt lat="46.18572" lon="3.39017">
        <ele>262</ele>
        <time>2011-10-04T00:53:34Z</time>
      </trkpt>
      <trkpt lat="46.18591" lon="3.38994">
        <ele>263</ele>
        <time>2011-10-04T00:53:40Z</time>
      </trkpt>
      <trkpt lat="46.1861" lon="3.38955">
        <ele>264</ele>
        <time>2011-10-04T00:53:48Z</time>
      </trkpt>
      <trkpt lat="46.1862" lon="3.38907">
        <ele>266</ele>
        <time>2011-10-04T00:53:56Z</time>
      </trkpt>
      <trkpt lat="46.18616" lon="3.38835">
        <ele>269</ele>
        <time>2011-10-04T00:54:10Z</time>
      </trkpt>
      <trkpt lat="46.18593" lon="3.3872">
        <ele>274</ele>
        <time>2011-10-04T00:54:33Z</time>
      </trkpt>
      <trkpt lat="46.1856" lon="3.38597">
        <ele>282</ele>
        <time>2011-10-04T00:55:05Z</time>
      </trkpt>
      <trkpt lat="46.18535" lon="3.3851">
        <ele>282</ele>
        <time>2011-10-04T00:55:13Z</time>
      </trkpt>
      <trkpt lat="46.18518" lon="3.38442">
        <ele>282</ele>
        <time>2011-10-04T00:55:20Z</time>
      </trkpt>
      <trkpt lat="46.18515" lon="3.38405">
        <ele>283</ele>
        <time>2011-10-04T00:55:27Z</time>
      </trkpt>
      <trkpt lat="46.18518" lon="3.38355">
        <ele>285</ele>
        <time>2011-10-04T00:55:36Z</time>
      </trkpt>
      <trkpt lat="46.18525" lon="3.38286">
        <ele>288</ele>
        <time>2011-10-04T00:55:49Z</time>
      </trkpt>
      <trkpt lat="46.18534" lon="3.38194">
        <ele>291</ele>
        <time>2011-10-04T00:56:06Z</time>
      </trkpt>
      <trkpt lat="46.18549" lon="3.381">
        <ele>295</ele>
        <time>2011-10-04T00:56:23Z</time>
      </trkpt>
      <trkpt lat="46.18592" lon="3.37858">
        <ele>299</ele>
        <time>2011-10-04T00:56:56Z</time>
      </trkpt>
      <trkpt lat="46.1861" lon="3.37797">
        <ele>299</ele>
        <time>2011-10-04T00:57:04Z</time>
      </trkpt>
      <trkpt lat="46.18626" lon="3.37753">
        <ele>300</ele>
        <time>2011-10-04T00:57:10Z</time>
      </trkpt>
      <trkpt lat="46.18657" lon="3.37696">
        <ele>301</ele>
        <time>2011-10-04T00:57:18Z</time>
      </trkpt>
      <trkpt lat="46.18685" lon="3.37649">
        <ele>302</ele>
        <time>2011-10-04T00:57:27Z</time>
      </trkpt>
      <trkpt lat="46.18773" lon="3.37548">
        <ele>306</ele>
        <time>2011-10-04T00:57:51Z</time>
      </trkpt>
      <trkpt lat="46.18985" lon="3.37317">
        <ele>314</ele>
        <time>2011-10-04T00:58:46Z</time>
      </trkpt>
      <trkpt lat="46.19032" lon="3.37265">
        <ele>315</ele>
        <time>2011-10-04T00:58:56Z</time>
      </trkpt>
      <trkpt lat="46.19066" lon="3.37232">
        <ele>316</ele>
        <time>2011-10-04T00:59:04Z</time>
      </trkpt>
      <trkpt lat="46.19093" lon="3.37212">
        <ele>316</ele>
        <time>2011-10-04T00:59:08Z</time>
      </trkpt>
      <trkpt lat="46.19139" lon="3.37187">
        <ele>316</ele>
        <time>2011-10-04T00:59:16Z</time>
      </trkpt>
      <trkpt lat="46.19398" lon="3.37087">
        <ele>319</ele>
        <time>2011-10-04T00:59:57Z</time>
      </trkpt>
      <trkpt lat="46.19427" lon="3.37072">
        <ele>319</ele>
        <time>2011-10-04T01:00:02Z</time>
      </trkpt>
      <trkpt lat="46.19447" lon="3.37056">
        <ele>319</ele>
        <time>2011-10-04T01:00:05Z</time>
      </trkpt>
      <trkpt lat="46.1947" lon="3.37036">
        <ele>319</ele>
        <time>2011-10-04T01:00:10Z</time>
      </trkpt>
      <trkpt lat="46.19815" lon="3.36663">
        <ele>323</ele>
        <time>2011-10-04T01:01:15Z</time>
      </trkpt>
      <trkpt lat="46.19986" lon="3.36479">
        <ele>330</ele>
        <time>2011-10-04T01:02:01Z</time>
      </trkpt>
      <trkpt lat="46.20169" lon="3.36267">
        <ele>329</ele>
        <time>2011-10-04T01:02:32Z</time>
      </trkpt>
      <trkpt lat="46.20518" lon="3.35852">
        <ele>321</ele>
        <time>2011-10-04T01:03:32Z</time>
      </trkpt>
      <trkpt lat="46.20785" lon="3.35541">
        <ele>311</ele>
        <time>2011-10-04T01:04:18Z</time>
      </trkpt>
      <trkpt lat="46.21059" lon="3.35256">
        <ele>304</ele>
        <time>2011-10-04T01:05:03Z</time>
      </trkpt>
      <trkpt lat="46.21766" lon="3.34515">
        <ele>294</ele>
        <time>2011-10-04T01:07:00Z</time>
      </trkpt>
      <trkpt lat="46.22018" lon="3.3425">
        <ele>292</ele>
        <time>2011-10-04T01:07:41Z</time>
      </trkpt>
      <trkpt lat="46.22052" lon="3.34225">
        <ele>292</ele>
        <time>2011-10-04T01:07:47Z</time>
      </trkpt>
      <trkpt lat="46.22085" lon="3.3421">
        <ele>292</ele>
        <time>2011-10-04T01:07:53Z</time>
      </trkpt>
      <trkpt lat="46.22115" lon="3.34201">
        <ele>293</ele>
        <time>2011-10-04T01:07:58Z</time>
      </trkpt>
      <trkpt lat="46.22155" lon="3.34196">
        <ele>293</ele>
        <time>2011-10-04T01:08:03Z</time>
      </trkpt>
      <trkpt lat="46.22185" lon="3.34198">
        <ele>293</ele>
        <time>2011-10-04T01:08:07Z</time>
      </trkpt>
      <trkpt lat="46.22208" lon="3.34203">
        <ele>293</ele>
        <time>2011-10-04T01:08:10Z</time>
      </trkpt>
      <trkpt lat="46.22208" lon="3.34228">
        <ele>293</ele>
        <time>2011-10-04T01:08:12Z</time>
      </trkpt>
      <trkpt lat="46.2221" lon="3.34236">
        <ele>293</ele>
        <time>2011-10-04T01:08:13Z</time>
      </trkpt>
      <trkpt lat="46.2221" lon="3.34236">
        <ele>293</ele>
        <time>2011-10-04T01:08:14Z</time>
      </trkpt>
      <trkpt lat="46.22208" lon="3.34228">
        <ele>292</ele>
        <time>2011-10-04T01:08:15Z</time>
      </trkpt>
      <trkpt lat="46.22208" lon="3.34203">
        <ele>292</ele>
        <time>2011-10-04T01:08:17Z</time>
      </trkpt>
      <trkpt lat="46.22255" lon="3.34223">
        <ele>290</ele>
        <time>2011-10-04T01:08:24Z</time>
      </trkpt>
      <trkpt lat="46.22292" lon="3.34248">
        <ele>288</ele>
        <time>2011-10-04T01:08:29Z</time>
      </trkpt>
      <trkpt lat="46.22326" lon="3.34282">
        <ele>287</ele>
        <time>2011-10-04T01:08:35Z</time>
      </trkpt>
      <trkpt lat="46.22374" lon="3.34335">
        <ele>282</ele>
        <time>2011-10-04T01:08:43Z</time>
      </trkpt>
      <trkpt lat="46.22381" lon="3.34343">
        <ele>282</ele>
        <time>2011-10-04T01:08:44Z</time>
      </trkpt>
      <trkpt lat="46.22407" lon="3.34371">
        <ele>280</ele>
        <time>2011-10-04T01:08:48Z</time>
      </trkpt>
      <trkpt lat="46.22426" lon="3.34375">
        <ele>278</ele>
        <time>2011-10-04T01:08:51Z</time>
      </trkpt>
      <trkpt lat="46.22446" lon="3.34375">
        <ele>277</ele>
        <time>2011-10-04T01:08:54Z</time>
      </trkpt>
      <trkpt lat="46.22533" lon="3.34353">
        <ele>272</ele>
        <time>2011-10-04T01:09:05Z</time>
      </trkpt>
      <trkpt lat="46.22541" lon="3.3435">
        <ele>271</ele>
        <time>2011-10-04T01:09:07Z</time>
      </trkpt>
      <trkpt lat="46.22575" lon="3.34339">
        <ele>270</ele>
        <time>2011-10-04T01:09:11Z</time>
      </trkpt>
      <trkpt lat="46.22656" lon="3.34302">
        <ele>267</ele>
        <time>2011-10-04T01:09:23Z</time>
      </trkpt>
      <trkpt lat="46.22659" lon="3.34301">
        <ele>266</ele>
        <time>2011-10-04T01:09:23Z</time>
      </trkpt>
      <trkpt lat="46.22696" lon="3.34264">
        <ele>263</ele>
        <time>2011-10-04T01:09:29Z</time>
      </trkpt>
      <trkpt lat="46.22757" lon="3.34202">
        <ele>258</ele>
        <time>2011-10-04T01:09:39Z</time>
      </trkpt>
      <trkpt lat="46.22784" lon="3.34162">
        <ele>258</ele>
        <time>2011-10-04T01:09:45Z</time>
      </trkpt>
      <trkpt lat="46.22987" lon="3.33622">
        <ele>263</ele>
        <time>2011-10-04T01:10:53Z</time>
      </trkpt>
      <trkpt lat="46.22994" lon="3.33583">
        <ele>263</ele>
        <time>2011-10-04T01:10:57Z</time>
      </trkpt>
      <trkpt lat="46.24176" lon="3.33032">
        <ele>264</ele>
        <time>2011-10-04T01:13:45Z</time>
      </trkpt>
      <trkpt lat="46.24903" lon="3.32981">
        <ele>259</ele>
        <time>2011-10-04T01:15:22Z</time>
      </trkpt>
      <trkpt lat="46.24964" lon="3.3294">
        <ele>259</ele>
        <time>2011-10-04T01:15:31Z</time>
      </trkpt>
      <trkpt lat="46.24988" lon="3.32912">
        <ele>259</ele>
        <time>2011-10-04T01:15:35Z</time>
      </trkpt>
      <trkpt lat="46.25007" lon="3.32883">
        <ele>258</ele>
        <time>2011-10-04T01:15:39Z</time>
      </trkpt>
      <trkpt lat="46.25027" lon="3.32828">
        <ele>256</ele>
        <time>2011-10-04T01:15:45Z</time>
      </trkpt>
      <trkpt lat="46.25042" lon="3.32744">
        <ele>255</ele>
        <time>2011-10-04T01:15:53Z</time>
      </trkpt>
      <trkpt lat="46.25027" lon="3.32374">
        <ele>258</ele>
        <time>2011-10-04T01:16:34Z</time>
      </trkpt>
      <trkpt lat="46.25046" lon="3.32372">
        <ele>258</ele>
        <time>2011-10-04T01:16:37Z</time>
      </trkpt>
      <trkpt lat="46.25291" lon="3.32322">
        <ele>258</ele>
        <time>2011-10-04T01:17:10Z</time>
      </trkpt>
      <trkpt lat="46.25449" lon="3.32279">
        <ele>258</ele>
        <time>2011-10-04T01:17:31Z</time>
      </trkpt>
      <trkpt lat="46.25601" lon="3.32244">
        <ele>255</ele>
        <time>2011-10-04T01:17:52Z</time>
      </trkpt>
      <trkpt lat="46.25704" lon="3.32226">
        <ele>255</ele>
        <time>2011-10-04T01:18:06Z</time>
      </trkpt>
      <trkpt lat="46.25711" lon="3.32222">
        <ele>254</ele>
        <time>2011-10-04T01:18:07Z</time>
      </trkpt>
      <trkpt lat="46.25719" lon="3.32223">
        <ele>254</ele>
        <time>2011-10-04T01:18:08Z</time>
      </trkpt>
      <trkpt lat="46.25767" lon="3.32219">
        <ele>253</ele>
        <time>2011-10-04T01:18:14Z</time>
      </trkpt>
      <trkpt lat="46.25928" lon="3.32236">
        <ele>249</ele>
        <time>2011-10-04T01:18:36Z</time>
      </trkpt>
      <trkpt lat="46.25962" lon="3.32228">
        <ele>248</ele>
        <time>2011-10-04T01:18:40Z</time>
      </trkpt>
      <trkpt lat="46.26003" lon="3.3221">
        <ele>247</ele>
        <time>2011-10-04T01:18:46Z</time>
      </trkpt>
      <trkpt lat="46.26084" lon="3.32163">
        <ele>246</ele>
        <time>2011-10-04T01:18:58Z</time>
      </trkpt>
      <trkpt lat="46.26093" lon="3.32164">
        <ele>245</ele>
        <time>2011-10-04T01:18:59Z</time>
      </trkpt>
      <trkpt lat="46.261" lon="3.32153">
        <ele>245</ele>
        <time>2011-10-04T01:19:00Z</time>
      </trkpt>
      <trkpt lat="46.27339" lon="3.31437">
        <ele>244</ele>
        <time>2011-10-04T01:21:58Z</time>
      </trkpt>
      <trkpt lat="46.27401" lon="3.31368">
        <ele>243</ele>
        <time>2011-10-04T01:22:09Z</time>
      </trkpt>
      <trkpt lat="46.27462" lon="3.31349">
        <ele>243</ele>
        <time>2011-10-04T01:22:17Z</time>
      </trkpt>
      <trkpt lat="46.27509" lon="3.31326">
        <ele>242</ele>
        <time>2011-10-04T01:22:24Z</time>
      </trkpt>
      <trkpt lat="46.2788" lon="3.31099">
        <ele>242</ele>
        <time>2011-10-04T01:23:18Z</time>
      </trkpt>
      <trkpt lat="46.27929" lon="3.3106">
        <ele>242</ele>
        <time>2011-10-04T01:23:25Z</time>
      </trkpt>
      <trkpt lat="46.28053" lon="3.30947">
        <ele>242</ele>
        <time>2011-10-04T01:23:45Z</time>
      </trkpt>
      <trkpt lat="46.28355" lon="3.30675">
        <ele>240</ele>
        <time>2011-10-04T01:24:32Z</time>
      </trkpt>
      <trkpt lat="46.2844" lon="3.30613">
        <ele>243</ele>
        <time>2011-10-04T01:24:52Z</time>
      </trkpt>
      <trkpt lat="46.28513" lon="3.30559">
        <ele>242</ele>
        <time>2011-10-04T01:25:03Z</time>
      </trkpt>
      <trkpt lat="46.28551" lon="3.30545">
        <ele>242</ele>
        <time>2011-10-04T01:25:08Z</time>
      </trkpt>
      <trkpt lat="46.28631" lon="3.30539">
        <ele>241</ele>
        <time>2011-10-04T01:25:19Z</time>
      </trkpt>
      <trkpt lat="46.28718" lon="3.30527">
        <ele>240</ele>
        <time>2011-10-04T01:25:31Z</time>
      </trkpt>
      <trkpt lat="46.28748" lon="3.3052">
        <ele>240</ele>
        <time>2011-10-04T01:25:35Z</time>
      </trkpt>
      <trkpt lat="46.28994" lon="3.30381">
        <ele>241</ele>
        <time>2011-10-04T01:26:12Z</time>
      </trkpt>
      <trkpt lat="46.29315" lon="3.30241">
        <ele>239</ele>
        <time>2011-10-04T01:26:57Z</time>
      </trkpt>
      <trkpt lat="46.29588" lon="3.30124">
        <ele>240</ele>
        <time>2011-10-04T01:27:38Z</time>
      </trkpt>
      <trkpt lat="46.29633" lon="3.3011">
        <ele>240</ele>
        <time>2011-10-04T01:27:44Z</time>
      </trkpt>
      <trkpt lat="46.29739" lon="3.30085">
        <ele>240</ele>
        <time>2011-10-04T01:27:58Z</time>
      </trkpt>
      <trkpt lat="46.29773" lon="3.3008">
        <ele>240</ele>
        <time>2011-10-04T01:28:03Z</time>
      </trkpt>
      <trkpt lat="46.29897" lon="3.30098">
        <ele>241</ele>
        <time>2011-10-04T01:28:22Z</time>
      </trkpt>
      <trkpt lat="46.29923" lon="3.30114">
        <ele>240</ele>
        <time>2011-10-04T01:28:26Z</time>
      </trkpt>
      <trkpt lat="46.30079" lon="3.29962">
        <ele>238</ele>
        <time>2011-10-04T01:28:51Z</time>
      </trkpt>
      <trkpt lat="46.30204" lon="3.29845">
        <ele>235</ele>
        <time>2011-10-04T01:29:11Z</time>
      </trkpt>
      <trkpt lat="46.30212" lon="3.2984">
        <ele>235</ele>
        <time>2011-10-04T01:29:12Z</time>
      </trkpt>
      <trkpt lat="46.30226" lon="3.29839">
        <ele>235</ele>
        <time>2011-10-04T01:29:14Z</time>
      </trkpt>
      <trkpt lat="46.30341" lon="3.29845">
        <ele>235</ele>
        <time>2011-10-04T01:29:29Z</time>
      </trkpt>
      <trkpt lat="46.30368" lon="3.29844">
        <ele>235</ele>
        <time>2011-10-04T01:29:33Z</time>
      </trkpt>
      <trkpt lat="46.30381" lon="3.29839">
        <ele>235</ele>
        <time>2011-10-04T01:29:34Z</time>
      </trkpt>
      <trkpt lat="46.30413" lon="3.29814">
        <ele>235</ele>
        <time>2011-10-04T01:29:39Z</time>
      </trkpt>
      <trkpt lat="46.30421" lon="3.29812">
        <ele>235</ele>
        <time>2011-10-04T01:29:40Z</time>
      </trkpt>
      <trkpt lat="46.30433" lon="3.29813">
        <ele>235</ele>
        <time>2011-10-04T01:29:42Z</time>
      </trkpt>
      <trkpt lat="46.30468" lon="3.29821">
        <ele>235</ele>
        <time>2011-10-04T01:29:47Z</time>
      </trkpt>
      <trkpt lat="46.30515" lon="3.29825">
        <ele>235</ele>
        <time>2011-10-04T01:29:54Z</time>
      </trkpt>
      <trkpt lat="46.30521" lon="3.2982">
        <ele>235</ele>
        <time>2011-10-04T01:29:55Z</time>
      </trkpt>
      <trkpt lat="46.30548" lon="3.29746">
        <ele>236</ele>
        <time>2011-10-04T01:30:04Z</time>
      </trkpt>
      <trkpt lat="46.30556" lon="3.29731">
        <ele>235</ele>
        <time>2011-10-04T01:30:06Z</time>
      </trkpt>
      <trkpt lat="46.3056" lon="3.29736">
        <ele>235</ele>
        <time>2011-10-04T01:30:06Z</time>
      </trkpt>
      <trkpt lat="46.30566" lon="3.29737">
        <ele>235</ele>
        <time>2011-10-04T01:30:07Z</time>
      </trkpt>
      <trkpt lat="46.3057" lon="3.29735">
        <ele>235</ele>
        <time>2011-10-04T01:30:08Z</time>
      </trkpt>
      <trkpt lat="46.30575" lon="3.2973">
        <ele>235</ele>
        <time>2011-10-04T01:30:09Z</time>
      </trkpt>
      <trkpt lat="46.30577" lon="3.29722">
        <ele>235</ele>
        <time>2011-10-04T01:30:09Z</time>
      </trkpt>
      <trkpt lat="46.30576" lon="3.29712">
        <ele>235</ele>
        <time>2011-10-04T01:30:10Z</time>
      </trkpt>
      <trkpt lat="46.3057" lon="3.29703">
        <ele>235</ele>
        <time>2011-10-04T01:30:12Z</time>
      </trkpt>
      <trkpt lat="46.30578" lon="3.29674">
        <ele>235</ele>
        <time>2011-10-04T01:30:14Z</time>
      </trkpt>
      <trkpt lat="46.30622" lon="3.29551">
        <ele>235</ele>
        <time>2011-10-04T01:30:27Z</time>
      </trkpt>
      <trkpt lat="46.30666" lon="3.2943">
        <ele>236</ele>
        <time>2011-10-04T01:30:42Z</time>
      </trkpt>
      <trkpt lat="46.30674" lon="3.29411">
        <ele>235</ele>
        <time>2011-10-04T01:30:44Z</time>
      </trkpt>
      <trkpt lat="46.30674" lon="3.29411">
        <ele>235</ele>
        <time>2011-10-04T01:30:45Z</time>
      </trkpt>
      <trkpt lat="46.30709" lon="3.29318">
        <ele>235</ele>
        <time>2011-10-04T01:30:55Z</time>
      </trkpt>
      <trkpt lat="46.30713" lon="3.29307">
        <ele>235</ele>
        <time>2011-10-04T01:30:56Z</time>
      </trkpt>
      <trkpt lat="46.30718" lon="3.29303">
        <ele>235</ele>
        <time>2011-10-04T01:30:57Z</time>
      </trkpt>
      <trkpt lat="46.30725" lon="3.29302">
        <ele>235</ele>
        <time>2011-10-04T01:30:58Z</time>
      </trkpt>
      <trkpt lat="46.30739" lon="3.29307">
        <ele>235</ele>
        <time>2011-10-04T01:31:00Z</time>
      </trkpt>
      <trkpt lat="46.30769" lon="3.29321">
        <ele>235</ele>
        <time>2011-10-04T01:31:06Z</time>
      </trkpt>
      <trkpt lat="46.30775" lon="3.29322">
        <ele>235</ele>
        <time>2011-10-04T01:31:07Z</time>
      </trkpt>
      <trkpt lat="46.3078" lon="3.29302">
        <ele>235</ele>
        <time>2011-10-04T01:31:09Z</time>
      </trkpt>
      <trkpt lat="46.30782" lon="3.29284">
        <ele>236</ele>
        <time>2011-10-04T01:31:11Z</time>
      </trkpt>
      <trkpt lat="46.3079" lon="3.29243">
        <ele>236</ele>
        <time>2011-10-04T01:31:16Z</time>
      </trkpt>
      <trkpt lat="46.308" lon="3.29208">
        <ele>237</ele>
        <time>2011-10-04T01:31:21Z</time>
      </trkpt>
      <trkpt lat="46.30812" lon="3.29176">
        <ele>237</ele>
        <time>2011-10-04T01:31:25Z</time>
      </trkpt>
      <trkpt lat="46.30816" lon="3.29149">
        <ele>237</ele>
        <time>2011-10-04T01:31:28Z</time>
      </trkpt>
      <trkpt lat="46.30851" lon="3.29153">
        <ele>237</ele>
        <time>2011-10-04T01:31:33Z</time>
      </trkpt>
      <trkpt lat="46.30867" lon="3.29097">
        <ele>238</ele>
        <time>2011-10-04T01:31:39Z</time>
      </trkpt>
      <trkpt lat="46.30875" lon="3.29102">
        <ele>238</ele>
        <time>2011-10-04T01:31:41Z</time>
      </trkpt>
      <trkpt lat="46.30894" lon="3.29114">
        <ele>239</ele>
        <time>2011-10-04T01:31:46Z</time>
      </trkpt>
      <trkpt lat="46.30902" lon="3.29114">
        <ele>239</ele>
        <time>2011-10-04T01:31:48Z</time>
      </trkpt>
      <trkpt lat="46.30909" lon="3.29091">
        <ele>240</ele>
        <time>2011-10-04T01:31:52Z</time>
      </trkpt>
      <trkpt lat="46.30926" lon="3.29035">
        <ele>241</ele>
        <time>2011-10-04T01:32:02Z</time>
      </trkpt>
      <trkpt lat="46.30999" lon="3.29007">
        <ele>245</ele>
        <time>2011-10-04T01:32:19Z</time>
      </trkpt>
      <trkpt lat="46.31015" lon="3.29005">
        <ele>245</ele>
        <time>2011-10-04T01:32:23Z</time>
      </trkpt>
      <trkpt lat="46.3103" lon="3.29006">
        <ele>246</ele>
        <time>2011-10-04T01:32:26Z</time>
      </trkpt>
      <trkpt lat="46.31046" lon="3.28974">
        <ele>247</ele>
        <time>2011-10-04T01:32:32Z</time>
      </trkpt>
      <trkpt lat="46.31066" lon="3.28945">
        <ele>247</ele>
        <time>2011-10-04T01:32:38Z</time>
      </trkpt>
      <trkpt lat="46.31089" lon="3.28919">
        <ele>249</ele>
        <time>2011-10-04T01:32:44Z</time>
      </trkpt>
      <trkpt lat="46.31131" lon="3.28877">
        <ele>248</ele>
        <time>2011-10-04T01:32:51Z</time>
      </trkpt>
      <trkpt lat="46.31168" lon="3.28809">
        <ele>247</ele>
        <time>2011-10-04T01:32:59Z</time>
      </trkpt>
      <trkpt lat="46.31188" lon="3.28756">
        <ele>246</ele>
        <time>2011-10-04T01:33:05Z</time>
      </trkpt>
      <trkpt lat="46.31189" lon="3.2874">
        <ele>245</ele>
        <time>2011-10-04T01:33:06Z</time>
      </trkpt>
      <trkpt lat="46.31205" lon="3.28738">
        <ele>245</ele>
        <time>2011-10-04T01:33:08Z</time>
      </trkpt>
      <trkpt lat="46.31543" lon="3.28687">
        <ele>238</ele>
        <time>2011-10-04T01:33:54Z</time>
      </trkpt>
      <trkpt lat="46.31942" lon="3.28628">
        <ele>240</ele>
        <time>2011-10-04T01:34:52Z</time>
      </trkpt>
      <trkpt lat="46.32986" lon="3.28471">
        <ele>253</ele>
        <time>2011-10-04T01:37:44Z</time>
      </trkpt>
      <trkpt lat="46.33168" lon="3.2846">
        <ele>251</ele>
        <time>2011-10-04T01:38:08Z</time>
      </trkpt>
      <trkpt lat="46.33507" lon="3.28537">
        <ele>243</ele>
        <time>2011-10-04T01:38:54Z</time>
      </trkpt>
      <trkpt lat="46.33541" lon="3.28545">
        <ele>242</ele>
        <time>2011-10-04T01:38:58Z</time>
      </trkpt>
      <trkpt lat="46.34084" lon="3.28677">
        <ele>234</ele>
        <time>2011-10-04T01:40:12Z</time>
      </trkpt>
      <trkpt lat="46.34175" lon="3.28693">
        <ele>232</ele>
        <time>2011-10-04T01:40:24Z</time>
      </trkpt>
      <trkpt lat="46.3421" lon="3.28697">
        <ele>233</ele>
        <time>2011-10-04T01:40:31Z</time>
      </trkpt>
      <trkpt lat="46.34229" lon="3.28696">
        <ele>233</ele>
        <time>2011-10-04T01:40:35Z</time>
      </trkpt>
      <trkpt lat="46.34395" lon="3.28629">
        <ele>239</ele>
        <time>2011-10-04T01:41:11Z</time>
      </trkpt>
      <trkpt lat="46.34353" lon="3.28256">
        <ele>244</ele>
        <time>2011-10-04T01:41:58Z</time>
      </trkpt>
      <trkpt lat="46.34314" lon="3.27883">
        <ele>239</ele>
        <time>2011-10-04T01:42:33Z</time>
      </trkpt>
      <trkpt lat="46.34313" lon="3.27859">
        <ele>238</ele>
        <time>2011-10-04T01:42:35Z</time>
      </trkpt>
      <trkpt lat="46.34315" lon="3.27834">
        <ele>238</ele>
        <time>2011-10-04T01:42:37Z</time>
      </trkpt>
      <trkpt lat="46.3432" lon="3.27802">
        <ele>238</ele>
        <time>2011-10-04T01:42:40Z</time>
      </trkpt>
      <trkpt lat="46.34332" lon="3.27772">
        <ele>237</ele>
        <time>2011-10-04T01:42:43Z</time>
      </trkpt>
      <trkpt lat="46.34355" lon="3.27737">
        <ele>237</ele>
        <time>2011-10-04T01:42:48Z</time>
      </trkpt>
      <trkpt lat="46.34582" lon="3.27474">
        <ele>241</ele>
        <time>2011-10-04T01:43:36Z</time>
      </trkpt>
      <trkpt lat="46.34657" lon="3.27391">
        <ele>242</ele>
        <time>2011-10-04T01:43:51Z</time>
      </trkpt>
      <trkpt lat="46.34795" lon="3.27244">
        <ele>243</ele>
        <time>2011-10-04T01:44:17Z</time>
      </trkpt>
      <trkpt lat="46.34919" lon="3.27111">
        <ele>246</ele>
        <time>2011-10-04T01:44:44Z</time>
      </trkpt>
      <trkpt lat="46.34936" lon="3.27089">
        <ele>246</ele>
        <time>2011-10-04T01:44:48Z</time>
      </trkpt>
      <trkpt lat="46.34948" lon="3.27069">
        <ele>246</ele>
        <time>2011-10-04T01:44:50Z</time>
      </trkpt>
      <trkpt lat="46.34964" lon="3.27038">
        <ele>246</ele>
        <time>2011-10-04T01:44:54Z</time>
      </trkpt>
      <trkpt lat="46.35054" lon="3.26857">
        <ele>246</ele>
        <time>2011-10-04T01:45:14Z</time>
      </trkpt>
      <trkpt lat="46.35085" lon="3.26794">
        <ele>247</ele>
        <time>2011-10-04T01:45:25Z</time>
      </trkpt>
      <trkpt lat="46.35107" lon="3.26753">
        <ele>248</ele>
        <time>2011-10-04T01:45:32Z</time>
      </trkpt>
      <trkpt lat="46.35123" lon="3.26731">
        <ele>249</ele>
        <time>2011-10-04T01:45:36Z</time>
      </trkpt>
      <trkpt lat="46.35136" lon="3.26714">
        <ele>249</ele>
        <time>2011-10-04T01:45:39Z</time>
      </trkpt>
      <trkpt lat="46.35175" lon="3.2667">
        <ele>250</ele>
        <time>2011-10-04T01:45:48Z</time>
      </trkpt>
      <trkpt lat="46.35317" lon="3.26504">
        <ele>254</ele>
        <time>2011-10-04T01:46:21Z</time>
      </trkpt>
      <trkpt lat="46.35457" lon="3.26342">
        <ele>261</ele>
        <time>2011-10-04T01:47:02Z</time>
      </trkpt>
      <trkpt lat="46.35498" lon="3.26293">
        <ele>261</ele>
        <time>2011-10-04T01:47:11Z</time>
      </trkpt>
      <trkpt lat="46.35518" lon="3.26264">
        <ele>261</ele>
        <time>2011-10-04T01:47:15Z</time>
      </trkpt>
      <trkpt lat="46.35532" lon="3.26237">
        <ele>262</ele>
        <time>2011-10-04T01:47:19Z</time>
      </trkpt>
      <trkpt lat="46.35546" lon="3.26205">
        <ele>262</ele>
        <time>2011-10-04T01:47:24Z</time>
      </trkpt>
      <trkpt lat="46.35557" lon="3.26174">
        <ele>263</ele>
        <time>2011-10-04T01:47:30Z</time>
      </trkpt>
      <trkpt lat="46.35567" lon="3.26137">
        <ele>264</ele>
        <time>2011-10-04T01:47:36Z</time>
      </trkpt>
      <trkpt lat="46.35595" lon="3.26015">
        <ele>268</ele>
        <time>2011-10-04T01:47:55Z</time>
      </trkpt>
      <trkpt lat="46.35616" lon="3.25921">
        <ele>272</ele>
        <time>2011-10-04T01:48:15Z</time>
      </trkpt>
      <trkpt lat="46.35624" lon="3.25882">
        <ele>274</ele>
        <time>2011-10-04T01:48:23Z</time>
      </trkpt>
      <trkpt lat="46.35624" lon="3.25862">
        <ele>275</ele>
        <time>2011-10-04T01:48:27Z</time>
      </trkpt>
      <trkpt lat="46.35624" lon="3.25846">
        <ele>275</ele>
        <time>2011-10-04T01:48:30Z</time>
      </trkpt>
      <trkpt lat="46.35617" lon="3.25783">
        <ele>279</ele>
        <time>2011-10-04T01:48:44Z</time>
      </trkpt>
      <trkpt lat="46.35604" lon="3.25689">
        <ele>284</ele>
        <time>2011-10-04T01:49:05Z</time>
      </trkpt>
      <trkpt lat="46.35599" lon="3.25634">
        <ele>286</ele>
        <time>2011-10-04T01:49:15Z</time>
      </trkpt>
      <trkpt lat="46.35598" lon="3.25617">
        <ele>286</ele>
        <time>2011-10-04T01:49:18Z</time>
      </trkpt>
      <trkpt lat="46.35599" lon="3.25585">
        <ele>288</ele>
        <time>2011-10-04T01:49:24Z</time>
      </trkpt>
      <trkpt lat="46.35602" lon="3.25563">
        <ele>289</ele>
        <time>2011-10-04T01:49:29Z</time>
      </trkpt>
      <trkpt lat="46.35606" lon="3.25544">
        <ele>290</ele>
        <time>2011-10-04T01:49:32Z</time>
      </trkpt>
      <trkpt lat="46.35615" lon="3.25524">
        <ele>290</ele>
        <time>2011-10-04T01:49:36Z</time>
      </trkpt>
      <trkpt lat="46.35677" lon="3.25417">
        <ele>295</ele>
        <time>2011-10-04T01:50:00Z</time>
      </trkpt>
      <trkpt lat="46.35751" lon="3.25291">
        <ele>298</ele>
        <time>2011-10-04T01:50:22Z</time>
      </trkpt>
      <trkpt lat="46.35867" lon="3.25086">
        <ele>311</ele>
        <time>2011-10-04T01:51:18Z</time>
      </trkpt>
      <trkpt lat="46.35898" lon="3.25031">
        <ele>314</ele>
        <time>2011-10-04T01:51:32Z</time>
      </trkpt>
      <trkpt lat="46.35939" lon="3.24947">
        <ele>319</ele>
        <time>2011-10-04T01:51:53Z</time>
      </trkpt>
      <trkpt lat="46.36044" lon="3.24724">
        <ele>331</ele>
        <time>2011-10-04T01:52:47Z</time>
      </trkpt>
      <trkpt lat="46.36154" lon="3.24496">
        <ele>335</ele>
        <time>2011-10-04T01:53:22Z</time>
      </trkpt>
      <trkpt lat="46.36283" lon="3.24226">
        <ele>337</ele>
        <time>2011-10-04T01:53:57Z</time>
      </trkpt>
      <trkpt lat="46.36334" lon="3.24119">
        <ele>337</ele>
        <time>2011-10-04T01:54:09Z</time>
      </trkpt>
      <trkpt lat="46.36353" lon="3.24086">
        <ele>337</ele>
        <time>2011-10-04T01:54:13Z</time>
      </trkpt>
      <trkpt lat="46.36425" lon="3.23982">
        <ele>339</ele>
        <time>2011-10-04T01:54:31Z</time>
      </trkpt>
      <trkpt lat="46.36507" lon="3.23862">
        <ele>340</ele>
        <time>2011-10-04T01:54:49Z</time>
      </trkpt>
      <trkpt lat="46.36599" lon="3.23732">
        <ele>341</ele>
        <time>2011-10-04T01:55:09Z</time>
      </trkpt>
      <trkpt lat="46.36658" lon="3.23658">
        <ele>342</ele>
        <time>2011-10-04T01:55:22Z</time>
      </trkpt>
      <trkpt lat="46.3676" lon="3.2354">
        <ele>344</ele>
        <time>2011-10-04T01:55:44Z</time>
      </trkpt>
      <trkpt lat="46.37076" lon="3.23166">
        <ele>357</ele>
        <time>2011-10-04T01:57:10Z</time>
      </trkpt>
      <trkpt lat="46.37177" lon="3.23048">
        <ele>360</ele>
        <time>2011-10-04T01:57:34Z</time>
      </trkpt>
      <trkpt lat="46.37192" lon="3.23026">
        <ele>360</ele>
        <time>2011-10-04T01:57:39Z</time>
      </trkpt>
      <trkpt lat="46.37206" lon="3.23002">
        <ele>361</ele>
        <time>2011-10-04T01:57:43Z</time>
      </trkpt>
      <trkpt lat="46.37248" lon="3.22905">
        <ele>364</ele>
        <time>2011-10-04T01:58:00Z</time>
      </trkpt>
      <trkpt lat="46.37373" lon="3.22602">
        <ele>371</ele>
        <time>2011-10-04T01:58:49Z</time>
      </trkpt>
      <trkpt lat="46.37384" lon="3.22577">
        <ele>371</ele>
        <time>2011-10-04T01:58:54Z</time>
      </trkpt>
      <trkpt lat="46.37395" lon="3.22556">
        <ele>372</ele>
        <time>2011-10-04T01:58:58Z</time>
      </trkpt>
      <trkpt lat="46.3745" lon="3.22463">
        <ele>376</ele>
        <time>2011-10-04T01:59:18Z</time>
      </trkpt>
      <trkpt lat="46.37512" lon="3.22358">
        <ele>378</ele>
        <time>2011-10-04T01:59:35Z</time>
      </trkpt>
      <trkpt lat="46.37727" lon="3.21991">
        <ele>380</ele>
        <time>2011-10-04T02:00:24Z</time>
      </trkpt>
      <trkpt lat="46.37755" lon="3.21948">
        <ele>380</ele>
        <time>2011-10-04T02:00:31Z</time>
      </trkpt>
      <trkpt lat="46.37957" lon="3.21677">
        <ele>384</ele>
        <time>2011-10-04T02:01:16Z</time>
      </trkpt>
      <trkpt lat="46.38045" lon="3.21557">
        <ele>382</ele>
        <time>2011-10-04T02:01:32Z</time>
      </trkpt>
      <trkpt lat="46.38133" lon="3.21439">
        <ele>382</ele>
        <time>2011-10-04T02:01:48Z</time>
      </trkpt>
      <trkpt lat="46.38277" lon="3.21246">
        <ele>380</ele>
        <time>2011-10-04T02:02:15Z</time>
      </trkpt>
      <trkpt lat="46.38294" lon="3.21218">
        <ele>379</ele>
        <time>2011-10-04T02:02:18Z</time>
      </trkpt>
      <trkpt lat="46.38311" lon="3.21183">
        <ele>379</ele>
        <time>2011-10-04T02:02:22Z</time>
      </trkpt>
      <trkpt lat="46.38373" lon="3.21056">
        <ele>378</ele>
        <time>2011-10-04T02:02:36Z</time>
      </trkpt>
      <trkpt lat="46.38453" lon="3.20892">
        <ele>374</ele>
        <time>2011-10-04T02:02:55Z</time>
      </trkpt>
      <trkpt lat="46.38555" lon="3.20681">
        <ele>371</ele>
        <time>2011-10-04T02:03:19Z</time>
      </trkpt>
      <trkpt lat="46.38671" lon="3.20442">
        <ele>372</ele>
        <time>2011-10-04T02:03:48Z</time>
      </trkpt>
      <trkpt lat="46.38781" lon="3.20217">
        <ele>364</ele>
        <time>2011-10-04T02:04:13Z</time>
      </trkpt>
      <trkpt lat="46.38914" lon="3.19942">
        <ele>364</ele>
        <time>2011-10-04T02:04:44Z</time>
      </trkpt>
      <trkpt lat="46.38974" lon="3.19819">
        <ele>364</ele>
        <time>2011-10-04T02:04:58Z</time>
      </trkpt>
      <trkpt lat="46.39004" lon="3.19763">
        <ele>364</ele>
        <time>2011-10-04T02:05:05Z</time>
      </trkpt>
      <trkpt lat="46.39029" lon="3.19717">
        <ele>364</ele>
        <time>2011-10-04T02:05:10Z</time>
      </trkpt>
      <trkpt lat="46.39141" lon="3.19529">
        <ele>364</ele>
        <time>2011-10-04T02:05:33Z</time>
      </trkpt>
      <trkpt lat="46.39152" lon="3.19502">
        <ele>364</ele>
        <time>2011-10-04T02:05:37Z</time>
      </trkpt>
      <trkpt lat="46.39157" lon="3.19483">
        <ele>364</ele>
        <time>2011-10-04T02:05:39Z</time>
      </trkpt>
      <trkpt lat="46.39164" lon="3.19458">
        <ele>364</ele>
        <time>2011-10-04T02:05:42Z</time>
      </trkpt>
      <trkpt lat="46.3928" lon="3.1869">
        <ele>371</ele>
        <time>2011-10-04T02:07:09Z</time>
      </trkpt>
      <trkpt lat="46.39297" lon="3.18641">
        <ele>371</ele>
        <time>2011-10-04T02:07:15Z</time>
      </trkpt>
      <trkpt lat="46.39469" lon="3.18393">
        <ele>372</ele>
        <time>2011-10-04T02:07:49Z</time>
      </trkpt>
      <trkpt lat="46.39751" lon="3.17984">
        <ele>379</ele>
        <time>2011-10-04T02:08:59Z</time>
      </trkpt>
      <trkpt lat="46.39807" lon="3.1791">
        <ele>381</ele>
        <time>2011-10-04T02:09:17Z</time>
      </trkpt>
      <trkpt lat="46.3983" lon="3.17894">
        <ele>383</ele>
        <time>2011-10-04T02:09:23Z</time>
      </trkpt>
      <trkpt lat="46.39837" lon="3.17889">
        <ele>382</ele>
        <time>2011-10-04T02:09:24Z</time>
      </trkpt>
      <trkpt lat="46.39968" lon="3.17813">
        <ele>381</ele>
        <time>2011-10-04T02:09:42Z</time>
      </trkpt>
      <trkpt lat="46.40035" lon="3.17774">
        <ele>376</ele>
        <time>2011-10-04T02:09:52Z</time>
      </trkpt>
      <trkpt lat="46.4006" lon="3.17758">
        <ele>375</ele>
        <time>2011-10-04T02:09:56Z</time>
      </trkpt>
      <trkpt lat="46.40079" lon="3.17739">
        <ele>373</ele>
        <time>2011-10-04T02:09:59Z</time>
      </trkpt>
      <trkpt lat="46.40097" lon="3.17713">
        <ele>371</ele>
        <time>2011-10-04T02:10:02Z</time>
      </trkpt>
      <trkpt lat="46.40161" lon="3.17578">
        <ele>364</ele>
        <time>2011-10-04T02:10:17Z</time>
      </trkpt>
      <trkpt lat="46.40176" lon="3.17552">
        <ele>364</ele>
        <time>2011-10-04T02:10:22Z</time>
      </trkpt>
      <trkpt lat="46.40187" lon="3.17541">
        <ele>364</ele>
        <time>2011-10-04T02:10:24Z</time>
      </trkpt>
      <trkpt lat="46.40196" lon="3.17538">
        <ele>365</ele>
        <time>2011-10-04T02:10:26Z</time>
      </trkpt>
      <trkpt lat="46.40203" lon="3.17536">
        <ele>365</ele>
        <time>2011-10-04T02:10:28Z</time>
      </trkpt>
      <trkpt lat="46.40311" lon="3.17533">
        <ele>368</ele>
        <time>2011-10-04T02:10:48Z</time>
      </trkpt>
      <trkpt lat="46.40318" lon="3.17532">
        <ele>368</ele>
        <time>2011-10-04T02:10:51Z</time>
      </trkpt>
      <trkpt lat="46.40401" lon="3.17485">
        <ele>375</ele>
        <time>2011-10-04T02:11:18Z</time>
      </trkpt>
      <trkpt lat="46.40416" lon="3.17475">
        <ele>375</ele>
        <time>2011-10-04T02:11:22Z</time>
      </trkpt>
      <trkpt lat="46.40426" lon="3.17465">
        <ele>376</ele>
        <time>2011-10-04T02:11:25Z</time>
      </trkpt>
      <trkpt lat="46.40443" lon="3.17444">
        <ele>377</ele>
        <time>2011-10-04T02:11:31Z</time>
      </trkpt>
      <trkpt lat="46.40449" lon="3.17434">
        <ele>377</ele>
        <time>2011-10-04T02:11:33Z</time>
      </trkpt>
      <trkpt lat="46.40455" lon="3.17429">
        <ele>378</ele>
        <time>2011-10-04T02:11:35Z</time>
      </trkpt>
      <trkpt lat="46.40469" lon="3.17427">
        <ele>378</ele>
        <time>2011-10-04T02:11:38Z</time>
      </trkpt>
      <trkpt lat="46.40474" lon="3.17427">
        <ele>379</ele>
        <time>2011-10-04T02:11:40Z</time>
      </trkpt>
      <trkpt lat="46.4049" lon="3.1742">
        <ele>380</ele>
        <time>2011-10-04T02:11:44Z</time>
      </trkpt>
      <trkpt lat="46.40504" lon="3.17407">
        <ele>379</ele>
        <time>2011-10-04T02:11:46Z</time>
      </trkpt>
      <trkpt lat="46.40583" lon="3.1725">
        <ele>379</ele>
        <time>2011-10-04T02:12:04Z</time>
      </trkpt>
      <trkpt lat="46.40629" lon="3.17172">
        <ele>377</ele>
        <time>2011-10-04T02:12:13Z</time>
      </trkpt>
      <trkpt lat="46.40737" lon="3.17014">
        <ele>375</ele>
        <time>2011-10-04T02:12:34Z</time>
      </trkpt>
      <trkpt lat="46.40894" lon="3.16814">
        <ele>370</ele>
        <time>2011-10-04T02:13:02Z</time>
      </trkpt>
      <trkpt lat="46.40961" lon="3.16747">
        <ele>370</ele>
        <time>2011-10-04T02:13:14Z</time>
      </trkpt>
      <trkpt lat="46.40988" lon="3.16726">
        <ele>371</ele>
        <time>2011-10-04T02:13:19Z</time>
      </trkpt>
      <trkpt lat="46.41232" lon="3.16592">
        <ele>379</ele>
        <time>2011-10-04T02:14:13Z</time>
      </trkpt>
      <trkpt lat="46.41294" lon="3.16558">
        <ele>380</ele>
        <time>2011-10-04T02:14:25Z</time>
      </trkpt>
      <trkpt lat="46.41329" lon="3.16549">
        <ele>381</ele>
        <time>2011-10-04T02:14:32Z</time>
      </trkpt>
      <trkpt lat="46.41356" lon="3.16552">
        <ele>381</ele>
        <time>2011-10-04T02:14:36Z</time>
      </trkpt>
      <trkpt lat="46.41585" lon="3.16613">
        <ele>383</ele>
        <time>2011-10-04T02:15:11Z</time>
      </trkpt>
      <trkpt lat="46.41635" lon="3.1662">
        <ele>384</ele>
        <time>2011-10-04T02:15:22Z</time>
      </trkpt>
      <trkpt lat="46.42156" lon="3.16609">
        <ele>401</ele>
        <time>2011-10-04T02:17:11Z</time>
      </trkpt>
      <trkpt lat="46.42318" lon="3.16538">
        <ele>402</ele>
        <time>2011-10-04T02:17:36Z</time>
      </trkpt>
      <trkpt lat="46.42587" lon="3.16421">
        <ele>412</ele>
        <time>2011-10-04T02:18:37Z</time>
      </trkpt>
      <trkpt lat="46.42611" lon="3.16405">
        <ele>412</ele>
        <time>2011-10-04T02:18:42Z</time>
      </trkpt>
      <trkpt lat="46.42623" lon="3.16395">
        <ele>413</ele>
        <time>2011-10-04T02:18:45Z</time>
      </trkpt>
      <trkpt lat="46.42801" lon="3.16186">
        <ele>419</ele>
        <time>2011-10-04T02:19:30Z</time>
      </trkpt>
      <trkpt lat="46.42833" lon="3.16153">
        <ele>419</ele>
        <time>2011-10-04T02:19:35Z</time>
      </trkpt>
      <trkpt lat="46.42935" lon="3.16077">
        <ele>419</ele>
        <time>2011-10-04T02:19:51Z</time>
      </trkpt>
      <trkpt lat="46.42946" lon="3.16072">
        <ele>419</ele>
        <time>2011-10-04T02:19:52Z</time>
      </trkpt>
      <trkpt lat="46.4296" lon="3.16065">
        <ele>419</ele>
        <time>2011-10-04T02:19:54Z</time>
      </trkpt>
      <trkpt lat="46.42989" lon="3.16061">
        <ele>419</ele>
        <time>2011-10-04T02:19:58Z</time>
      </trkpt>
      <trkpt lat="46.43026" lon="3.16067">
        <ele>419</ele>
        <time>2011-10-04T02:20:03Z</time>
      </trkpt>
      <trkpt lat="46.43366" lon="3.16123">
        <ele>405</ele>
        <time>2011-10-04T02:20:49Z</time>
      </trkpt>
      <trkpt lat="46.43413" lon="3.16127">
        <ele>405</ele>
        <time>2011-10-04T02:20:57Z</time>
      </trkpt>
      <trkpt lat="46.43615" lon="3.16122">
        <ele>409</ele>
        <time>2011-10-04T02:21:31Z</time>
      </trkpt>
      <trkpt lat="46.43672" lon="3.16119">
        <ele>411</ele>
        <time>2011-10-04T02:21:45Z</time>
      </trkpt>
      <trkpt lat="46.43711" lon="3.16109">
        <ele>413</ele>
        <time>2011-10-04T02:21:54Z</time>
      </trkpt>
      <trkpt lat="46.4376" lon="3.16088">
        <ele>414</ele>
        <time>2011-10-04T02:22:04Z</time>
      </trkpt>
      <trkpt lat="46.43794" lon="3.16076">
        <ele>415</ele>
        <time>2011-10-04T02:22:11Z</time>
      </trkpt>
      <trkpt lat="46.43864" lon="3.16049">
        <ele>417</ele>
        <time>2011-10-04T02:22:25Z</time>
      </trkpt>
      <trkpt lat="46.43897" lon="3.16043">
        <ele>417</ele>
        <time>2011-10-04T02:22:30Z</time>
      </trkpt>
      <trkpt lat="46.43954" lon="3.16042">
        <ele>418</ele>
        <time>2011-10-04T02:22:39Z</time>
      </trkpt>
      <trkpt lat="46.44061" lon="3.16044">
        <ele>420</ele>
        <time>2011-10-04T02:22:58Z</time>
      </trkpt>
      <trkpt lat="46.44077" lon="3.16045">
        <ele>419</ele>
        <time>2011-10-04T02:23:00Z</time>
      </trkpt>
      <trkpt lat="46.44089" lon="3.16046">
        <ele>419</ele>
        <time>2011-10-04T02:23:02Z</time>
      </trkpt>
      <trkpt lat="46.44104" lon="3.16046">
        <ele>419</ele>
        <time>2011-10-04T02:23:04Z</time>
      </trkpt>
      <trkpt lat="46.44147" lon="3.16046">
        <ele>419</ele>
        <time>2011-10-04T02:23:10Z</time>
      </trkpt>
      <trkpt lat="46.44208" lon="3.16049">
        <ele>419</ele>
        <time>2011-10-04T02:23:18Z</time>
      </trkpt>
      <trkpt lat="46.44218" lon="3.16048">
        <ele>419</ele>
        <time>2011-10-04T02:23:20Z</time>
      </trkpt>
      <trkpt lat="46.44225" lon="3.16049">
        <ele>419</ele>
        <time>2011-10-04T02:23:22Z</time>
      </trkpt>
      <trkpt lat="46.44345" lon="3.16053">
        <ele>424</ele>
        <time>2011-10-04T02:23:48Z</time>
      </trkpt>
      <trkpt lat="46.44396" lon="3.16059">
        <ele>425</ele>
        <time>2011-10-04T02:23:58Z</time>
      </trkpt>
      <trkpt lat="46.44404" lon="3.16076">
        <ele>425</ele>
        <time>2011-10-04T02:24:01Z</time>
      </trkpt>
      <trkpt lat="46.4446" lon="3.16119">
        <ele>427</ele>
        <time>2011-10-04T02:24:13Z</time>
      </trkpt>
      <trkpt lat="46.44509" lon="3.16102">
        <ele>427</ele>
        <time>2011-10-04T02:24:19Z</time>
      </trkpt>
      <trkpt lat="46.44559" lon="3.16096">
        <ele>427</ele>
        <time>2011-10-04T02:24:26Z</time>
      </trkpt>
      <trkpt lat="46.44596" lon="3.16079">
        <ele>426</ele>
        <time>2011-10-04T02:24:31Z</time>
      </trkpt>
      <trkpt lat="46.44614" lon="3.16073">
        <ele>425</ele>
        <time>2011-10-04T02:24:34Z</time>
      </trkpt>
      <trkpt lat="46.4466" lon="3.16032">
        <ele>425</ele>
        <time>2011-10-04T02:24:41Z</time>
      </trkpt>
      <trkpt lat="46.4467" lon="3.16007">
        <ele>424</ele>
        <time>2011-10-04T02:24:44Z</time>
      </trkpt>
      <trkpt lat="46.44712" lon="3.15927">
        <ele>421</ele>
        <time>2011-10-04T02:24:53Z</time>
      </trkpt>
      <trkpt lat="46.44712" lon="3.15928">
        <ele>420</ele>
        <time>2011-10-04T02:24:53Z</time>
      </trkpt>
      <trkpt lat="46.44757" lon="3.15886">
        <ele>420</ele>
        <time>2011-10-04T02:25:00Z</time>
      </trkpt>
      <trkpt lat="46.44857" lon="3.15796">
        <ele>420</ele>
        <time>2011-10-04T02:25:16Z</time>
      </trkpt>
      <trkpt lat="46.44868" lon="3.15784">
        <ele>420</ele>
        <time>2011-10-04T02:25:18Z</time>
      </trkpt>
      <trkpt lat="46.44946" lon="3.15768">
        <ele>422</ele>
        <time>2011-10-04T02:25:33Z</time>
      </trkpt>
      <trkpt lat="46.44998" lon="3.15703">
        <ele>427</ele>
        <time>2011-10-04T02:25:56Z</time>
      </trkpt>
      <trkpt lat="46.45026" lon="3.15691">
        <ele>430</ele>
        <time>2011-10-04T02:26:05Z</time>
      </trkpt>
      <trkpt lat="46.4509" lon="3.15711">
        <ele>428</ele>
        <time>2011-10-04T02:26:14Z</time>
      </trkpt>
      <trkpt lat="46.45125" lon="3.15728">
        <ele>427</ele>
        <time>2011-10-04T02:26:19Z</time>
      </trkpt>
      <trkpt lat="46.45226" lon="3.1567">
        <ele>421</ele>
        <time>2011-10-04T02:26:33Z</time>
      </trkpt>
      <trkpt lat="46.4536" lon="3.15569">
        <ele>410</ele>
        <time>2011-10-04T02:26:54Z</time>
      </trkpt>
      <trkpt lat="46.45458" lon="3.15424">
        <ele>404</ele>
        <time>2011-10-04T02:27:12Z</time>
      </trkpt>
      <trkpt lat="46.45481" lon="3.15389">
        <ele>401</ele>
        <time>2011-10-04T02:27:17Z</time>
      </trkpt>
      <trkpt lat="46.45567" lon="3.15252">
        <ele>391</ele>
        <time>2011-10-04T02:27:34Z</time>
      </trkpt>
      <trkpt lat="46.45713" lon="3.151">
        <ele>383</ele>
        <time>2011-10-04T02:27:58Z</time>
      </trkpt>
      <trkpt lat="46.45805" lon="3.14945">
        <ele>386</ele>
        <time>2011-10-04T02:28:24Z</time>
      </trkpt>
      <trkpt lat="46.45869" lon="3.14738">
        <ele>385</ele>
        <time>2011-10-04T02:28:45Z</time>
      </trkpt>
      <trkpt lat="46.45927" lon="3.14536">
        <ele>381</ele>
        <time>2011-10-04T02:29:05Z</time>
      </trkpt>
      <trkpt lat="46.46011" lon="3.14337">
        <ele>374</ele>
        <time>2011-10-04T02:29:26Z</time>
      </trkpt>
      <trkpt lat="46.46073" lon="3.14143">
        <ele>366</ele>
        <time>2011-10-04T02:29:46Z</time>
      </trkpt>
      <trkpt lat="46.46175" lon="3.14004">
        <ele>361</ele>
        <time>2011-10-04T02:30:05Z</time>
      </trkpt>
      <trkpt lat="46.4633" lon="3.14014">
        <ele>351</ele>
        <time>2011-10-04T02:30:25Z</time>
      </trkpt>
      <trkpt lat="46.46438" lon="3.14075">
        <ele>345</ele>
        <time>2011-10-04T02:30:41Z</time>
      </trkpt>
      <trkpt lat="46.46555" lon="3.13942">
        <ele>337</ele>
        <time>2011-10-04T02:31:01Z</time>
      </trkpt>
      <trkpt lat="46.46676" lon="3.1393">
        <ele>326</ele>
        <time>2011-10-04T02:31:17Z</time>
      </trkpt>
      <trkpt lat="46.46783" lon="3.13823">
        <ele>321</ele>
        <time>2011-10-04T02:31:34Z</time>
      </trkpt>
      <trkpt lat="46.46844" lon="3.13683">
        <ele>312</ele>
        <time>2011-10-04T02:31:50Z</time>
      </trkpt>
      <trkpt lat="46.47076" lon="3.13625">
        <ele>306</ele>
        <time>2011-10-04T02:32:21Z</time>
      </trkpt>
      <trkpt lat="46.47104" lon="3.13601">
        <ele>305</ele>
        <time>2011-10-04T02:32:25Z</time>
      </trkpt>
      <trkpt lat="46.47128" lon="3.13558">
        <ele>304</ele>
        <time>2011-10-04T02:32:30Z</time>
      </trkpt>
      <trkpt lat="46.47163" lon="3.13518">
        <ele>303</ele>
        <time>2011-10-04T02:32:36Z</time>
      </trkpt>
      <trkpt lat="46.47214" lon="3.13499">
        <ele>300</ele>
        <time>2011-10-04T02:32:43Z</time>
      </trkpt>
      <trkpt lat="46.47341" lon="3.13566">
        <ele>295</ele>
        <time>2011-10-04T02:33:01Z</time>
      </trkpt>
      <trkpt lat="46.47364" lon="3.13571">
        <ele>292</ele>
        <time>2011-10-04T02:33:05Z</time>
      </trkpt>
      <trkpt lat="46.47385" lon="3.13565">
        <ele>290</ele>
        <time>2011-10-04T02:33:07Z</time>
      </trkpt>
      <trkpt lat="46.47412" lon="3.13524">
        <ele>285</ele>
        <time>2011-10-04T02:33:13Z</time>
      </trkpt>
      <trkpt lat="46.47445" lon="3.13466">
        <ele>280</ele>
        <time>2011-10-04T02:33:20Z</time>
      </trkpt>
      <trkpt lat="46.47448" lon="3.13464">
        <ele>279</ele>
        <time>2011-10-04T02:33:20Z</time>
      </trkpt>
      <trkpt lat="46.4747" lon="3.1345">
        <ele>277</ele>
        <time>2011-10-04T02:33:23Z</time>
      </trkpt>
      <trkpt lat="46.475" lon="3.13426">
        <ele>275</ele>
        <time>2011-10-04T02:33:28Z</time>
      </trkpt>
      <trkpt lat="46.47527" lon="3.1337">
        <ele>272</ele>
        <time>2011-10-04T02:33:34Z</time>
      </trkpt>
      <trkpt lat="46.4755" lon="3.13321">
        <ele>272</ele>
        <time>2011-10-04T02:33:40Z</time>
      </trkpt>
      <trkpt lat="46.47513" lon="3.13293">
        <ele>272</ele>
        <time>2011-10-04T02:33:46Z</time>
      </trkpt>
      <trkpt lat="46.47494" lon="3.13193">
        <ele>273</ele>
        <time>2011-10-04T02:33:57Z</time>
      </trkpt>
      <trkpt lat="46.47489" lon="3.13162">
        <ele>273</ele>
        <time>2011-10-04T02:34:00Z</time>
      </trkpt>
      <trkpt lat="46.47499" lon="3.13137">
        <ele>273</ele>
        <time>2011-10-04T02:34:03Z</time>
      </trkpt>
      <trkpt lat="46.47538" lon="3.13112">
        <ele>273</ele>
        <time>2011-10-04T02:34:08Z</time>
      </trkpt>
      <trkpt lat="46.47568" lon="3.13089">
        <ele>273</ele>
        <time>2011-10-04T02:34:13Z</time>
      </trkpt>
      <trkpt lat="46.4758" lon="3.13061">
        <ele>274</ele>
        <time>2011-10-04T02:34:19Z</time>
      </trkpt>
      <trkpt lat="46.47579" lon="3.13028">
        <ele>275</ele>
        <time>2011-10-04T02:34:24Z</time>
      </trkpt>
      <trkpt lat="46.47566" lon="3.12969">
        <ele>277</ele>
        <time>2011-10-04T02:34:35Z</time>
      </trkpt>
      <trkpt lat="46.47555" lon="3.12899">
        <ele>280</ele>
        <time>2011-10-04T02:34:48Z</time>
      </trkpt>
      <trkpt lat="46.47556" lon="3.12865">
        <ele>281</ele>
        <time>2011-10-04T02:34:54Z</time>
      </trkpt>
      <trkpt lat="46.47572" lon="3.12848">
        <ele>282</ele>
        <time>2011-10-04T02:34:59Z</time>
      </trkpt>
      <trkpt lat="46.47591" lon="3.12845">
        <ele>282</ele>
        <time>2011-10-04T02:35:03Z</time>
      </trkpt>
      <trkpt lat="46.4761" lon="3.12849">
        <ele>283</ele>
        <time>2011-10-04T02:35:08Z</time>
      </trkpt>
      <trkpt lat="46.47696" lon="3.12946">
        <ele>289</ele>
        <time>2011-10-04T02:35:35Z</time>
      </trkpt>
      <trkpt lat="46.47717" lon="3.12958">
        <ele>291</ele>
        <time>2011-10-04T02:35:43Z</time>
      </trkpt>
      <trkpt lat="46.47737" lon="3.12954">
        <ele>292</ele>
        <time>2011-10-04T02:35:50Z</time>
      </trkpt>
      <trkpt lat="46.47761" lon="3.12952">
        <ele>295</ele>
        <time>2011-10-04T02:35:58Z</time>
      </trkpt>
      <trkpt lat="46.47781" lon="3.12776">
        <ele>306</ele>
        <time>2011-10-04T02:36:41Z</time>
      </trkpt>
      <trkpt lat="46.47789" lon="3.12713">
        <ele>311</ele>
        <time>2011-10-04T02:37:00Z</time>
      </trkpt>
      <trkpt lat="46.4781" lon="3.12658">
        <ele>316</ele>
        <time>2011-10-04T02:37:19Z</time>
      </trkpt>
      <trkpt lat="46.47817" lon="3.1262">
        <ele>320</ele>
        <time>2011-10-04T02:37:30Z</time>
      </trkpt>
      <trkpt lat="46.47828" lon="3.12556">
        <ele>322</ele>
        <time>2011-10-04T02:37:43Z</time>
      </trkpt>
      <trkpt lat="46.47841" lon="3.12528">
        <ele>324</ele>
        <time>2011-10-04T02:37:49Z</time>
      </trkpt>
      <trkpt lat="46.4785" lon="3.12521">
        <ele>324</ele>
        <time>2011-10-04T02:37:52Z</time>
      </trkpt>
      <trkpt lat="46.47869" lon="3.12511">
        <ele>326</ele>
        <time>2011-10-04T02:37:58Z</time>
      </trkpt>
      <trkpt lat="46.47891" lon="3.125">
        <ele>327</ele>
        <time>2011-10-04T02:38:03Z</time>
      </trkpt>
      <trkpt lat="46.47933" lon="3.12487">
        <ele>328</ele>
        <time>2011-10-04T02:38:13Z</time>
      </trkpt>
      <trkpt lat="46.47951" lon="3.12484">
        <ele>329</ele>
        <time>2011-10-04T02:38:18Z</time>
      </trkpt>
      <trkpt lat="46.47981" lon="3.12482">
        <ele>331</ele>
        <time>2011-10-04T02:38:25Z</time>
      </trkpt>
      <trkpt lat="46.48002" lon="3.12484">
        <ele>330</ele>
        <time>2011-10-04T02:38:28Z</time>
      </trkpt>
      <trkpt lat="46.48019" lon="3.12383">
        <ele>329</ele>
        <time>2011-10-04T02:38:37Z</time>
      </trkpt>
      <trkpt lat="46.48042" lon="3.12275">
        <ele>328</ele>
        <time>2011-10-04T02:38:48Z</time>
      </trkpt>
      <trkpt lat="46.4805" lon="3.1223">
        <ele>326</ele>
        <time>2011-10-04T02:38:52Z</time>
      </trkpt>
      <trkpt lat="46.48057" lon="3.122">
        <ele>326</ele>
        <time>2011-10-04T02:38:55Z</time>
      </trkpt>
      <trkpt lat="46.48116" lon="3.12075">
        <ele>323</ele>
        <time>2011-10-04T02:39:09Z</time>
      </trkpt>
      <trkpt lat="46.48126" lon="3.12021">
        <ele>320</ele>
        <time>2011-10-04T02:39:14Z</time>
      </trkpt>
      <trkpt lat="46.48114" lon="3.11995">
        <ele>319</ele>
        <time>2011-10-04T02:39:17Z</time>
      </trkpt>
      <trkpt lat="46.48096" lon="3.11952">
        <ele>317</ele>
        <time>2011-10-04T02:39:22Z</time>
      </trkpt>
      <trkpt lat="46.48096" lon="3.11863">
        <ele>314</ele>
        <time>2011-10-04T02:39:30Z</time>
      </trkpt>
      <trkpt lat="46.48111" lon="3.1177">
        <ele>310</ele>
        <time>2011-10-04T02:39:38Z</time>
      </trkpt>
      <trkpt lat="46.48137" lon="3.11738">
        <ele>309</ele>
        <time>2011-10-04T02:39:43Z</time>
      </trkpt>
      <trkpt lat="46.48191" lon="3.11732">
        <ele>308</ele>
        <time>2011-10-04T02:39:50Z</time>
      </trkpt>
      <trkpt lat="46.48391" lon="3.11728">
        <ele>308</ele>
        <time>2011-10-04T02:40:17Z</time>
      </trkpt>
      <trkpt lat="46.48435" lon="3.11699">
        <ele>311</ele>
        <time>2011-10-04T02:40:31Z</time>
      </trkpt>
      <trkpt lat="46.4844" lon="3.11646">
        <ele>313</ele>
        <time>2011-10-04T02:40:41Z</time>
      </trkpt>
      <trkpt lat="46.48425" lon="3.11565">
        <ele>317</ele>
        <time>2011-10-04T02:40:58Z</time>
      </trkpt>
      <trkpt lat="46.48484" lon="3.11505">
        <ele>315</ele>
        <time>2011-10-04T02:41:07Z</time>
      </trkpt>
      <trkpt lat="46.48549" lon="3.11487">
        <ele>315</ele>
        <time>2011-10-04T02:41:16Z</time>
      </trkpt>
      <trkpt lat="46.48589" lon="3.11514">
        <ele>313</ele>
        <time>2011-10-04T02:41:22Z</time>
      </trkpt>
      <trkpt lat="46.48717" lon="3.1161">
        <ele>308</ele>
        <time>2011-10-04T02:41:41Z</time>
      </trkpt>
      <trkpt lat="46.48772" lon="3.11617">
        <ele>307</ele>
        <time>2011-10-04T02:41:49Z</time>
      </trkpt>
      <trkpt lat="46.49044" lon="3.11737">
        <ele>303</ele>
        <time>2011-10-04T02:42:27Z</time>
      </trkpt>
      <trkpt lat="46.4918" lon="3.1175">
        <ele>293</ele>
        <time>2011-10-04T02:42:45Z</time>
      </trkpt>
      <trkpt lat="46.49373" lon="3.11887">
        <ele>288</ele>
        <time>2011-10-04T02:43:14Z</time>
      </trkpt>
      <trkpt lat="46.49433" lon="3.11917">
        <ele>285</ele>
        <time>2011-10-04T02:43:22Z</time>
      </trkpt>
      <trkpt lat="46.49498" lon="3.11979">
        <ele>282</ele>
        <time>2011-10-04T02:43:32Z</time>
      </trkpt>
      <trkpt lat="46.49473" lon="3.11929">
        <ele>282</ele>
        <time>2011-10-04T02:43:38Z</time>
      </trkpt>
      <trkpt lat="46.49464" lon="3.11904">
        <ele>282</ele>
        <time>2011-10-04T02:43:41Z</time>
      </trkpt>
      <trkpt lat="46.4947" lon="3.11888">
        <ele>282</ele>
        <time>2011-10-04T02:43:42Z</time>
      </trkpt>
      <trkpt lat="46.49561" lon="3.11811">
        <ele>282</ele>
        <time>2011-10-04T02:43:56Z</time>
      </trkpt>
      <trkpt lat="46.49586" lon="3.11801">
        <ele>282</ele>
        <time>2011-10-04T02:44:01Z</time>
      </trkpt>
      <trkpt lat="46.49657" lon="3.11842">
        <ele>284</ele>
        <time>2011-10-04T02:44:15Z</time>
      </trkpt>
      <trkpt lat="46.49681" lon="3.11846">
        <ele>284</ele>
        <time>2011-10-04T02:44:19Z</time>
      </trkpt>
      <trkpt lat="46.49785" lon="3.1179">
        <ele>287</ele>
        <time>2011-10-04T02:44:40Z</time>
      </trkpt>
      <trkpt lat="46.49699" lon="3.11468">
        <ele>292</ele>
        <time>2011-10-04T02:45:24Z</time>
      </trkpt>
      <trkpt lat="46.49841" lon="3.11333">
        <ele>298</ele>
        <time>2011-10-04T02:46:01Z</time>
      </trkpt>
      <trkpt lat="46.49908" lon="3.11218">
        <ele>305</ele>
        <time>2011-10-04T02:46:32Z</time>
      </trkpt>
      <trkpt lat="46.49935" lon="3.11157">
        <ele>307</ele>
        <time>2011-10-04T02:46:45Z</time>
      </trkpt>
      <trkpt lat="46.49984" lon="3.10938">
        <ele>317</ele>
        <time>2011-10-04T02:47:28Z</time>
      </trkpt>
      <trkpt lat="46.49981" lon="3.10785">
        <ele>326</ele>
        <time>2011-10-04T02:48:04Z</time>
      </trkpt>
      <trkpt lat="46.49953" lon="3.10693">
        <ele>334</ele>
        <time>2011-10-04T02:48:34Z</time>
      </trkpt>
      <trkpt lat="46.49949" lon="3.10542">
        <ele>348</ele>
        <time>2011-10-04T02:49:20Z</time>
      </trkpt>
      <trkpt lat="46.49962" lon="3.10407">
        <ele>359</ele>
        <time>2011-10-04T02:49:59Z</time>
      </trkpt>
      <trkpt lat="46.50102" lon="3.10382">
        <ele>354</ele>
        <time>2011-10-04T02:50:18Z</time>
      </trkpt>
      <trkpt lat="46.50258" lon="3.10358">
        <ele>354</ele>
        <time>2011-10-04T02:50:39Z</time>
      </trkpt>
      <trkpt lat="46.50334" lon="3.10191">
        <ele>364</ele>
        <time>2011-10-04T02:51:21Z</time>
      </trkpt>
      <trkpt lat="46.50502" lon="3.10019">
        <ele>379</ele>
        <time>2011-10-04T02:52:24Z</time>
      </trkpt>
      <trkpt lat="46.50541" lon="3.09992">
        <ele>379</ele>
        <time>2011-10-04T02:52:32Z</time>
      </trkpt>
      <trkpt lat="46.50658" lon="3.09854">
        <ele>382</ele>
        <time>2011-10-04T02:52:58Z</time>
      </trkpt>
      <trkpt lat="46.50833" lon="3.09783">
        <ele>386</ele>
        <time>2011-10-04T02:53:31Z</time>
      </trkpt>
      <trkpt lat="46.51017" lon="3.09684">
        <ele>389</ele>
        <time>2011-10-04T02:54:05Z</time>
      </trkpt>
      <trkpt lat="46.51145" lon="3.09514">
        <ele>366</ele>
        <time>2011-10-04T02:54:28Z</time>
      </trkpt>
      <trkpt lat="46.51254" lon="3.09481">
        <ele>361</ele>
        <time>2011-10-04T02:54:43Z</time>
      </trkpt>
      <trkpt lat="46.5145" lon="3.09382">
        <ele>353</ele>
        <time>2011-10-04T02:55:11Z</time>
      </trkpt>
      <trkpt lat="46.51569" lon="3.0934">
        <ele>342</ele>
        <time>2011-10-04T02:55:27Z</time>
      </trkpt>
      <trkpt lat="46.51919" lon="3.09209">
        <ele>324</ele>
        <time>2011-10-04T02:56:15Z</time>
      </trkpt>
      <trkpt lat="46.51981" lon="3.08982">
        <ele>315</ele>
        <time>2011-10-04T02:56:38Z</time>
      </trkpt>
      <trkpt lat="46.52145" lon="3.08914">
        <ele>314</ele>
        <time>2011-10-04T02:57:00Z</time>
      </trkpt>
      <trkpt lat="46.52257" lon="3.08874">
        <ele>320</ele>
        <time>2011-10-04T02:57:30Z</time>
      </trkpt>
      <trkpt lat="46.52385" lon="3.08784">
        <ele>325</ele>
        <time>2011-10-04T02:58:01Z</time>
      </trkpt>
      <trkpt lat="46.52598" lon="3.08574">
        <ele>332</ele>
        <time>2011-10-04T02:58:52Z</time>
      </trkpt>
      <trkpt lat="46.52649" lon="3.08586">
        <ele>331</ele>
        <time>2011-10-04T02:58:59Z</time>
      </trkpt>
      <trkpt lat="46.52687" lon="3.08562">
        <ele>330</ele>
        <time>2011-10-04T02:59:05Z</time>
      </trkpt>
      <trkpt lat="46.5285" lon="3.08437">
        <ele>329</ele>
        <time>2011-10-04T02:59:29Z</time>
      </trkpt>
      <trkpt lat="46.53076" lon="3.08252">
        <ele>334</ele>
        <time>2011-10-04T03:00:16Z</time>
      </trkpt>
      <trkpt lat="46.54291" lon="3.0726">
        <ele>294</ele>
        <time>2011-10-04T03:03:22Z</time>
      </trkpt>
      <trkpt lat="46.54782" lon="3.06858">
        <ele>254</ele>
        <time>2011-10-04T03:04:38Z</time>
      </trkpt>
      <trkpt lat="46.54874" lon="3.06796">
        <ele>248</ele>
        <time>2011-10-04T03:04:51Z</time>
      </trkpt>
      <trkpt lat="46.54973" lon="3.06784">
        <ele>246</ele>
        <time>2011-10-04T03:05:04Z</time>
      </trkpt>
      <trkpt lat="46.55067" lon="3.0678">
        <ele>254</ele>
        <time>2011-10-04T03:05:36Z</time>
      </trkpt>
      <trkpt lat="46.55104" lon="3.06775">
        <ele>256</ele>
        <time>2011-10-04T03:05:48Z</time>
      </trkpt>
      <trkpt lat="46.55156" lon="3.06659">
        <ele>264</ele>
        <time>2011-10-04T03:06:18Z</time>
      </trkpt>
      <trkpt lat="46.55191" lon="3.06503">
        <ele>276</ele>
        <time>2011-10-04T03:07:02Z</time>
      </trkpt>
      <trkpt lat="46.55404" lon="3.06487">
        <ele>288</ele>
        <time>2011-10-04T03:07:59Z</time>
      </trkpt>
      <trkpt lat="46.5544" lon="3.06547">
        <ele>290</ele>
        <time>2011-10-04T03:08:11Z</time>
      </trkpt>
      <trkpt lat="46.55525" lon="3.06639">
        <ele>294</ele>
        <time>2011-10-04T03:08:35Z</time>
      </trkpt>
      <trkpt lat="46.5566" lon="3.0675">
        <ele>300</ele>
        <time>2011-10-04T03:09:10Z</time>
      </trkpt>
      <trkpt lat="46.55691" lon="3.06774">
        <ele>300</ele>
        <time>2011-10-04T03:09:16Z</time>
      </trkpt>
      <trkpt lat="46.55716" lon="3.06782">
        <ele>301</ele>
        <time>2011-10-04T03:09:21Z</time>
      </trkpt>
      <trkpt lat="46.55761" lon="3.06792">
        <ele>302</ele>
        <time>2011-10-04T03:09:29Z</time>
      </trkpt>
      <trkpt lat="46.55799" lon="3.06787">
        <ele>301</ele>
        <time>2011-10-04T03:09:34Z</time>
      </trkpt>
      <trkpt lat="46.55846" lon="3.06775">
        <ele>300</ele>
        <time>2011-10-04T03:09:40Z</time>
      </trkpt>
      <trkpt lat="46.56031" lon="3.06729">
        <ele>296</ele>
        <time>2011-10-04T03:10:05Z</time>
      </trkpt>
      <trkpt lat="46.56068" lon="3.06716">
        <ele>295</ele>
        <time>2011-10-04T03:10:11Z</time>
      </trkpt>
      <trkpt lat="46.56501" lon="3.06348">
        <ele>286</ele>
        <time>2011-10-04T03:11:18Z</time>
      </trkpt>
      <trkpt lat="46.5686" lon="3.06041">
        <ele>270</ele>
        <time>2011-10-04T03:12:13Z</time>
      </trkpt>
      <trkpt lat="46.5688" lon="3.06024">
        <ele>269</ele>
        <time>2011-10-04T03:12:16Z</time>
      </trkpt>
      <trkpt lat="46.56907" lon="3.05998">
        <ele>268</ele>
        <time>2011-10-04T03:12:21Z</time>
      </trkpt>
      <trkpt lat="46.5693" lon="3.05963">
        <ele>267</ele>
        <time>2011-10-04T03:12:25Z</time>
      </trkpt>
      <trkpt lat="46.56979" lon="3.05837">
        <ele>264</ele>
        <time>2011-10-04T03:12:38Z</time>
      </trkpt>
      <trkpt lat="46.57004" lon="3.05791">
        <ele>260</ele>
        <time>2011-10-04T03:12:44Z</time>
      </trkpt>
      <trkpt lat="46.57026" lon="3.05759">
        <ele>258</ele>
        <time>2011-10-04T03:12:48Z</time>
      </trkpt>
      <trkpt lat="46.5703" lon="3.05754">
        <ele>257</ele>
        <time>2011-10-04T03:12:49Z</time>
      </trkpt>
      <trkpt lat="46.57038" lon="3.05745">
        <ele>257</ele>
        <time>2011-10-04T03:12:50Z</time>
      </trkpt>
      <trkpt lat="46.57063" lon="3.05729">
        <ele>255</ele>
        <time>2011-10-04T03:12:54Z</time>
      </trkpt>
      <trkpt lat="46.57082" lon="3.05724">
        <ele>253</ele>
        <time>2011-10-04T03:12:56Z</time>
      </trkpt>
      <trkpt lat="46.57134" lon="3.05723">
        <ele>250</ele>
        <time>2011-10-04T03:13:03Z</time>
      </trkpt>
      <trkpt lat="46.57155" lon="3.05718">
        <ele>249</ele>
        <time>2011-10-04T03:13:06Z</time>
      </trkpt>
      <trkpt lat="46.57169" lon="3.05706">
        <ele>249</ele>
        <time>2011-10-04T03:13:09Z</time>
      </trkpt>
      <trkpt lat="46.57243" lon="3.05591">
        <ele>253</ele>
        <time>2011-10-04T03:13:32Z</time>
      </trkpt>
      <trkpt lat="46.57262" lon="3.05577">
        <ele>254</ele>
        <time>2011-10-04T03:13:40Z</time>
      </trkpt>
      <trkpt lat="46.57281" lon="3.05571">
        <ele>256</ele>
        <time>2011-10-04T03:13:47Z</time>
      </trkpt>
      <trkpt lat="46.5731" lon="3.0557">
        <ele>259</ele>
        <time>2011-10-04T03:13:57Z</time>
      </trkpt>
      <trkpt lat="46.5738" lon="3.05566">
        <ele>266</ele>
        <time>2011-10-04T03:14:22Z</time>
      </trkpt>
      <trkpt lat="46.57465" lon="3.05542">
        <ele>267</ele>
        <time>2011-10-04T03:14:38Z</time>
      </trkpt>
      <trkpt lat="46.57508" lon="3.05534">
        <ele>269</ele>
        <time>2011-10-04T03:14:47Z</time>
      </trkpt>
      <trkpt lat="46.57537" lon="3.05537">
        <ele>269</ele>
        <time>2011-10-04T03:14:50Z</time>
      </trkpt>
      <trkpt lat="46.57617" lon="3.05563">
        <ele>269</ele>
        <time>2011-10-04T03:15:01Z</time>
      </trkpt>
      <trkpt lat="46.5765" lon="3.05567">
        <ele>269</ele>
        <time>2011-10-04T03:15:06Z</time>
      </trkpt>
      <trkpt lat="46.57739" lon="3.05573">
        <ele>270</ele>
        <time>2011-10-04T03:15:20Z</time>
      </trkpt>
      <trkpt lat="46.57784" lon="3.05594">
        <ele>269</ele>
        <time>2011-10-04T03:15:26Z</time>
      </trkpt>
      <trkpt lat="46.57837" lon="3.05645">
        <ele>269</ele>
        <time>2011-10-04T03:15:35Z</time>
      </trkpt>
      <trkpt lat="46.57867" lon="3.05663">
        <ele>268</ele>
        <time>2011-10-04T03:15:39Z</time>
      </trkpt>
      <trkpt lat="46.57894" lon="3.05668">
        <ele>267</ele>
        <time>2011-10-04T03:15:43Z</time>
      </trkpt>
      <trkpt lat="46.57988" lon="3.05629">
        <ele>265</ele>
        <time>2011-10-04T03:15:56Z</time>
      </trkpt>
      <trkpt lat="46.58005" lon="3.05624">
        <ele>264</ele>
        <time>2011-10-04T03:15:58Z</time>
      </trkpt>
      <trkpt lat="46.58028" lon="3.05625">
        <ele>263</ele>
        <time>2011-10-04T03:16:01Z</time>
      </trkpt>
      <trkpt lat="46.58143" lon="3.05674">
        <ele>260</ele>
        <time>2011-10-04T03:16:17Z</time>
      </trkpt>
      <trkpt lat="46.58167" lon="3.05684">
        <ele>259</ele>
        <time>2011-10-04T03:16:21Z</time>
      </trkpt>
      <trkpt lat="46.58184" lon="3.05692">
        <ele>258</ele>
        <time>2011-10-04T03:16:23Z</time>
      </trkpt>
      <trkpt lat="46.58225" lon="3.05709">
        <ele>257</ele>
        <time>2011-10-04T03:16:29Z</time>
      </trkpt>
      <trkpt lat="46.58235" lon="3.05734">
        <ele>257</ele>
        <time>2011-10-04T03:16:31Z</time>
      </trkpt>
      <trkpt lat="46.58289" lon="3.05788">
        <ele>255</ele>
        <time>2011-10-04T03:16:40Z</time>
      </trkpt>
      <trkpt lat="46.58295" lon="3.05818">
        <ele>255</ele>
        <time>2011-10-04T03:16:43Z</time>
      </trkpt>
      <trkpt lat="46.58297" lon="3.05843">
        <ele>255</ele>
        <time>2011-10-04T03:16:45Z</time>
      </trkpt>
      <trkpt lat="46.58363" lon="3.0605">
        <ele>251</ele>
        <time>2011-10-04T03:17:06Z</time>
      </trkpt>
      <trkpt lat="46.58371" lon="3.05973">
        <ele>249</ele>
        <time>2011-10-04T03:17:13Z</time>
      </trkpt>
      <trkpt lat="46.58374" lon="3.05953">
        <ele>248</ele>
        <time>2011-10-04T03:17:15Z</time>
      </trkpt>
      <trkpt lat="46.58389" lon="3.058">
        <ele>245</ele>
        <time>2011-10-04T03:17:30Z</time>
      </trkpt>
      <trkpt lat="46.58396" lon="3.05776">
        <ele>244</ele>
        <time>2011-10-04T03:17:32Z</time>
      </trkpt>
      <trkpt lat="46.58409" lon="3.05746">
        <ele>243</ele>
        <time>2011-10-04T03:17:35Z</time>
      </trkpt>
      <trkpt lat="46.58455" lon="3.05658">
        <ele>240</ele>
        <time>2011-10-04T03:17:45Z</time>
      </trkpt>
      <trkpt lat="46.58469" lon="3.0562">
        <ele>238</ele>
        <time>2011-10-04T03:17:49Z</time>
      </trkpt>
      <trkpt lat="46.58519" lon="3.05697">
        <ele>236</ele>
        <time>2011-10-04T03:17:59Z</time>
      </trkpt>
      <trkpt lat="46.58567" lon="3.05767">
        <ele>234</ele>
        <time>2011-10-04T03:18:08Z</time>
      </trkpt>
      <trkpt lat="46.58607" lon="3.05809">
        <ele>233</ele>
        <time>2011-10-04T03:18:15Z</time>
      </trkpt>
    </trkseg>
  </trk>
</gpx>